Observation data for Fort Chadbourne on 12/10/2019      Previous  Date       Current Mesonet Observations  Soil Data  Daily Summary Page  Observations in Plain Language
KCH1 100600Z 02010KT 02/02 A3013 RMK A01 T00240018  RH  096%=      5-min Rain = 0
KCH1 100601Z 02010KT 02/02 A3013 RMK A01 T00230017  RH  096%=      5-min Rain = 0
KCH1 100602Z 03011KT 02/02 A3013 RMK A01 T00240018  RH  096%=      5-min Rain = 0
KCH1 100603Z 04010KT 02/02 A3013 RMK A01 T00240018  RH  096%=      5-min Rain = 0.01
KCH1 100604Z 02008G13KT 02/02 A3013 RMK A01 T00230017  RH  096%=      5-min Rain = 0
KCH1 100605Z 02007KT 02/02 A3013 RMK A01 T00230017  RH  096%=      5-min Rain = 0
KCH1 100606Z 03007KT 02/02 A3013 RMK A01 T00230017  RH  096%=      5-min Rain = 0.01
KCH1 100607Z 03007KT 02/02 A3013 RMK A01 T00230018  RH  096%=      5-min Rain = 0
KCH1 100608Z 02006KT 02/02 A3013 RMK A01 T00230018  RH  096%=      5-min Rain = 0
KCH1 100609Z 01007KT 02/02 A3013 RMK A01 T00230018  RH  096%=      5-min Rain = 0.01
KCH1 100610Z 02010KT 02/02 A3013 RMK A01 T00230018  RH  096%=      5-min Rain = 0
KCH1 100611Z 01008KT 02/02 A3013 RMK A01 T00230018  RH  096%=      5-min Rain = 0
KCH1 100612Z 01009KT 02/02 A3013 RMK A01 T00230017  RH  096%=      5-min Rain = 0
KCH1 100613Z 02008KT 02/02 A3013 RMK A01 T00230017  RH  096%=      5-min Rain = 0.01
KCH1 100614Z 01007KT 02/02 A3013 RMK A01 T00230017  RH  096%=      5-min Rain = 0
KCH1 100615Z 02010KT 02/02 A3013 RMK A01 T00230017  RH  096%=      5-min Rain = 0
KCH1 100616Z 03010KT 02/02 A3013 RMK A01 T00230017  RH  095%=      5-min Rain = 0
KCH1 100617Z 02009KT 02/02 A3012 RMK A01 T00230016  RH  095%=      5-min Rain = 0
KCH1 100618Z 02008KT 02/02 A3012 RMK A01 T00230016  RH  095%=      5-min Rain = 0
KCH1 100619Z 03008KT 02/02 A3012 RMK A01 T00230016  RH  095%=      5-min Rain = 0.01
KCH1 100620Z 01009KT 02/02 A3012 RMK A01 T00230016  RH  095%=      5-min Rain = 0
KCH1 100621Z 01009G14KT 02/02 A3013 RMK A01 T00230016  RH  095%=      5-min Rain = 0
KCH1 100622Z 02010KT 02/02 A3013 RMK A01 T00230016  RH  095%=      5-min Rain = 0.01
KCH1 100623Z 01009G14KT 02/02 A3013 RMK A01 T00230016  RH  095%=      5-min Rain = 0
KCH1 100624Z 01010KT 02/02 A3013 RMK A01 T00230016  RH  095%=      5-min Rain = 0
KCH1 100625Z 02008KT 02/02 A3013 RMK A01 T00230016  RH  095%=      5-min Rain = 0
KCH1 100626Z 02008KT 02/02 A3013 RMK A01 T00230016  RH  095%=      5-min Rain = 0.01
KCH1 100627Z 02007KT 02/02 A3013 RMK A01 T00230016  RH  095%=      5-min Rain = 0
KCH1 100628Z 02007KT 02/02 A3012 RMK A01 T00230016  RH  095%=      5-min Rain = 0
KCH1 100629Z 02008KT 02/02 A3012 RMK A01 T00230016  RH  095%=      5-min Rain = 0
KCH1 100630Z 02008KT 02/02 A3012 RMK A01 T00230016  RH  095%=      5-min Rain = 0
KCH1 100631Z 02010G16KT 02/02 A3012 RMK A01 T00230016  RH  095%=      5-min Rain = 0
KCH1 100632Z 03009KT 02/02 A3012 RMK A01 T00230015  RH  095%=      5-min Rain = 0.01
KCH1 100633Z 03009KT 02/02 A3012 RMK A01 T00230015  RH  095%=      5-min Rain = 0
KCH1 100634Z 03008KT 02/01 A3012 RMK A01 T00230014  RH  094%=      5-min Rain = 0
KCH1 100635Z 03011KT 02/02 A3012 RMK A01 T00230015  RH  094%=      5-min Rain = 0
KCH1 100636Z 03011G16KT 02/01 A3012 RMK A01 T00230014  RH  094%=      5-min Rain = 0
KCH1 100637Z 03010KT 02/01 A3012 RMK A01 T00230014  RH  094%=      5-min Rain = 0
KCH1 100638Z 03008KT 02/01 A3012 RMK A01 T00230013  RH  094%=      5-min Rain = 0
KCH1 100639Z 03008KT 02/01 A3012 RMK A01 T00230014  RH  094%=      5-min Rain = 0
KCH1 100640Z 04007KT 02/01 A3012 RMK A01 T00230014  RH  094%=      5-min Rain = 0.01
KCH1 100641Z 04008KT 02/01 A3012 RMK A01 T00220014  RH  094%=      5-min Rain = 0
KCH1 100642Z 04010KT 02/01 A3012 RMK A01 T00220014  RH  094%=      5-min Rain = 0
KCH1 100643Z 03009KT 02/01 A3012 RMK A01 T00220013  RH  094%=      5-min Rain = 0
KCH1 100644Z 02010KT 02/01 A3012 RMK A01 T00220013  RH  094%=      5-min Rain = 0
KCH1 100645Z 03012KT 02/01 A3012 RMK A01 T00220013  RH  094%=      5-min Rain = 0
KCH1 100646Z 03011G16KT 02/01 A3012 RMK A01 T00220012  RH  093%=      5-min Rain = 0
KCH1 100647Z 02007KT 02/01 A3013 RMK A01 T00220012  RH  093%=      5-min Rain = 0.01
KCH1 100648Z 02008KT 02/01 A3013 RMK A01 T00220013  RH  094%=      5-min Rain = 0
KCH1 100649Z 02010KT 02/01 A3013 RMK A01 T00220013  RH  094%=      5-min Rain = 0
KCH1 100650Z 03012KT 02/01 A3013 RMK A01 T00210012  RH  094%=      5-min Rain = 0
KCH1 100651Z 03013G18KT 02/01 A3013 RMK A01 T00210012  RH  093%=      5-min Rain = 0
KCH1 100652Z 01011KT 02/01 A3012 RMK A01 T00220011  RH  093%=      5-min Rain = 0
KCH1 100653Z 03010KT 02/01 A3012 RMK A01 T00210011  RH  093%=      5-min Rain = 0.01
KCH1 100654Z 02010KT 02/01 A3012 RMK A01 T00210010  RH  093%=      5-min Rain = 0
KCH1 100655Z 02011KT 02/01 A3013 RMK A01 T00210011  RH  093%=      5-min Rain = 0
KCH1 100656Z 02011KT 02/01 A3013 RMK A01 T00210011  RH  093%=      5-min Rain = 0
KCH1 100657Z 00009KT 02/01 A3013 RMK A01 T00220012  RH  093%=      5-min Rain = 0
KCH1 100658Z 01007KT 02/01 A3013 RMK A01 T00210012  RH  094%=      5-min Rain = 0.01
KCH1 100659Z 01007KT 02/01 A3013 RMK A01 T00210012  RH  094%=      5-min Rain = 0
KCH1 100700Z 02010KT 02/01 A3013 RMK A01 T00210013  RH  094%=      5-min Rain = 0
KCH1 100701Z 02009KT 02/01 A3013 RMK A01 T00210013  RH  094%=      5-min Rain = 0
KCH1 100702Z 01008KT 02/01 A3013 RMK A01 T00210013  RH  094%=      5-min Rain = 0
KCH1 100703Z 36007KT 02/01 A3013 RMK A01 T00210013  RH  094%=      5-min Rain = 0.01
KCH1 100704Z 02007KT 02/01 A3013 RMK A01 T00210013  RH  094%=      5-min Rain = 0
KCH1 100705Z 00009KT 02/01 A3013 RMK A01 T00210013  RH  095%=      5-min Rain = 0
KCH1 100706Z 00013KT 02/01 A3014 RMK A01 T00210014  RH  095%=      5-min Rain = 0
KCH1 100707Z 36012KT 02/01 A3014 RMK A01 T00220014  RH  094%=      5-min Rain = 0
KCH1 100708Z 36009KT 02/01 A3014 RMK A01 T00220014  RH  094%=      5-min Rain = 0.01
KCH1 100709Z 34007KT 02/01 A3014 RMK A01 T00230014  RH  094%=      5-min Rain = 0
KCH1 100710Z 35009KT 02/01 A3014 RMK A01 T00220014  RH  094%=      5-min Rain = 0
KCH1 100711Z 35007KT 02/02 A3014 RMK A01 T00230016  RH  095%=      5-min Rain = 0
KCH1 100712Z 36007KT 02/02 A3014 RMK A01 T00230016  RH  096%=      5-min Rain = 0
KCH1 100713Z 35007KT 02/02 A3014 RMK A01 T00230017  RH  096%=      5-min Rain = 0
KCH1 100714Z 00008KT 02/02 A3014 RMK A01 T00230017  RH  096%=      5-min Rain = 0
KCH1 100715Z 35007KT 02/02 A3014 RMK A01 T00230017  RH  096%=      5-min Rain = 0.01
KCH1 100716Z 35007KT 02/02 A3014 RMK A01 T00230017  RH  096%=      5-min Rain = 0
KCH1 100717Z 35005KT 02/02 A3014 RMK A01 T00230018  RH  096%=      5-min Rain = 0
KCH1 100718Z 35007KT 02/02 A3014 RMK A01 T00230018  RH  096%=      5-min Rain = 0
KCH1 100719Z 01006KT 02/02 A3014 RMK A01 T00230018  RH  097%=      5-min Rain = 0.01
KCH1 100720Z 02008KT 02/02 A3014 RMK A01 T00230018  RH  097%=      5-min Rain = 0
KCH1 100721Z 02005KT 02/02 A3014 RMK A01 T00230018  RH  097%=      5-min Rain = 0
KCH1 100722Z 01006KT 02/02 A3014 RMK A01 T00240019  RH  097%=      5-min Rain = 0
KCH1 100723Z 01006KT 02/02 A3014 RMK A01 T00240019  RH  097%=      5-min Rain = 0
KCH1 100724Z 01007KT 02/02 A3014 RMK A01 T00240019  RH  097%=      5-min Rain = 0
KCH1 100725Z 01007KT 02/02 A3014 RMK A01 T00240019  RH  097%=      5-min Rain = 0.01
KCH1 100726Z 01005KT 02/02 A3014 RMK A01 T00240020  RH  097%=      5-min Rain = 0
KCH1 100727Z 01005KT 02/02 A3014 RMK A01 T00240020  RH  097%=      5-min Rain = 0
KCH1 100728Z 01007KT 02/02 A3014 RMK A01 T00240020  RH  097%=      5-min Rain = 0
KCH1 100729Z 02005KT 02/02 A3014 RMK A01 T00240020  RH  097%=      5-min Rain = 0.01
KCH1 100730Z 02006KT 02/02 A3014 RMK A01 T00240021  RH  098%=      5-min Rain = 0
KCH1 100731Z 02008KT 02/02 A3014 RMK A01 T00240021  RH  098%=      5-min Rain = 0
KCH1 100732Z 02006KT 02/02 A3014 RMK A01 T00240021  RH  098%=      5-min Rain = 0
KCH1 100733Z 03007KT 02/02 A3014 RMK A01 T00240021  RH  098%=      5-min Rain = 0.01
KCH1 100734Z 02009G15KT 03/02 A3014 RMK A01 T00250021  RH  098%=      5-min Rain = 0
KCH1 100735Z 03011G16KT 02/02 A3013 RMK A01 T00240021  RH  098%=      5-min Rain = 0
KCH1 100736Z 03014KT 02/02 A3013 RMK A01 T00230019  RH  097%=      5-min Rain = 0.01
KCH1 100737Z 03014G19KT 02/02 A3013 RMK A01 T00220016  RH  096%=      5-min Rain = 0
KCH1 100738Z 02014KT 02/01 A3013 RMK A01 T00210014  RH  095%=      5-min Rain = 0
KCH1 100739Z 01014G19KT 02/01 A3013 RMK A01 T00210012  RH  094%=      5-min Rain = 0
KCH1 100740Z 01009KT 02/01 A3013 RMK A01 T00200010  RH  093%=      5-min Rain = 0.01
KCH1 100741Z 03008G13KT 02/01 A3013 RMK A01 T00200011  RH  094%=      5-min Rain = 0
KCH1 100742Z 02005KT 02/01 A3013 RMK A01 T00200011  RH  094%=      5-min Rain = 0.01
KCH1 100743Z 02008KT 02/01 A3013 RMK A01 T00190011  RH  095%=      5-min Rain = 0
KCH1 100744Z 02007KT 02/01 A3013 RMK A01 T00190012  RH  095%=      5-min Rain = 0
KCH1 100745Z 02009KT 02/01 A3013 RMK A01 T00190013  RH  095%=      5-min Rain = 0
KCH1 100746Z 03008KT 02/01 A3013 RMK A01 T00190012  RH  095%=      5-min Rain = 0
KCH1 100747Z 02007KT 02/01 A3014 RMK A01 T00180011  RH  095%=      5-min Rain = 0.01
KCH1 100748Z 03006KT 02/01 A3014 RMK A01 T00180011  RH  095%=      5-min Rain = 0
KCH1 100749Z 01008KT 02/01 A3014 RMK A01 T00180011  RH  095%=      5-min Rain = 0
KCH1 100750Z 03008KT 02/01 A3014 RMK A01 T00170010  RH  095%=      5-min Rain = 0.01
KCH1 100751Z 02008KT 02/01 A3014 RMK A01 T00170009  RH  095%=      5-min Rain = 0
KCH1 100752Z 01007KT 02/01 A3014 RMK A01 T00160008  RH  094%=      5-min Rain = 0
KCH1 100753Z 03009KT 02/01 A3014 RMK A01 T00160008  RH  095%=      5-min Rain = 0.01
KCH1 100754Z 03010KT 02/01 A3014 RMK A01 T00160008  RH  095%=      5-min Rain = 0
KCH1 100755Z 02008KT 02/01 A3014 RMK A01 T00150007  RH  095%=      5-min Rain = 0
KCH1 100756Z 03010KT 01/01 A3014 RMK A01 T00140006  RH  094%=      5-min Rain = 0.01
KCH1 100757Z 02008KT 01/01 A3014 RMK A01 T00140005  RH  094%=      5-min Rain = 0
KCH1 100758Z 01011KT 01/01 A3014 RMK A01 T00140005  RH  094%=      5-min Rain = 0
KCH1 100759Z 02010KT 01/00 A3014 RMK A01 T00140004  RH  094%=      5-min Rain = 0
KCH1 100800Z 02006KT 01/00 A3015 RMK A01 T00130004  RH  094%=      5-min Rain = 0.01
KCH1 100801Z 01009KT 01/01 A3015 RMK A01 T00140005  RH  094%=      5-min Rain = 0
KCH1 100802Z 02009KT 01/00 A3015 RMK A01 T00130004  RH  094%=      5-min Rain = 0
KCH1 100803Z 02011KT 01/00 A3015 RMK A01 T00130004  RH  094%=      5-min Rain = 0
KCH1 100804Z 02006KT 01/00 A3015 RMK A01 T00130003  RH  093%=      5-min Rain = 0.01
KCH1 100805Z 01004KT 01/00 A3015 RMK A01 T00130003  RH  094%=      5-min Rain = 0
KCH1 100806Z 01003KT 01/00 A3015 RMK A01 T00120004  RH  094%=      5-min Rain = 0
KCH1 100807Z 00003KT 01/01 A3015 RMK A01 T00130005  RH  095%=      5-min Rain = 0
KCH1 100808Z 02006KT 01/01 A3015 RMK A01 T00130005  RH  095%=      5-min Rain = 0
KCH1 100809Z 01007KT 01/01 A3015 RMK A01 T00120005  RH  095%=      5-min Rain = 0
KCH1 100810Z 02005KT 01/01 A3015 RMK A01 T00120005  RH  095%=      5-min Rain = 0.01
KCH1 100811Z 01004KT 01/01 A3015 RMK A01 T00120005  RH  095%=      5-min Rain = 0
KCH1 100812Z 02006KT 01/01 A3015 RMK A01 T00120005  RH  095%=      5-min Rain = 0
KCH1 100813Z 02005KT 01/01 A3015 RMK A01 T00120005  RH  095%=      5-min Rain = 0
KCH1 100814Z 01005KT 01/01 A3015 RMK A01 T00120005  RH  095%=      5-min Rain = 0
KCH1 100815Z 02004KT 01/01 A3015 RMK A01 T00120005  RH  095%=      5-min Rain = 0
KCH1 100816Z 01004KT 01/01 A3015 RMK A01 T00120005  RH  095%=      5-min Rain = 0.01
KCH1 100817Z 02005KT 01/01 A3015 RMK A01 T00120005  RH  096%=      5-min Rain = 0
KCH1 100818Z 02005KT 01/01 A3015 RMK A01 T00120005  RH  096%=      5-min Rain = 0
KCH1 100819Z 03003KT 01/01 A3015 RMK A01 T00120005  RH  096%=      5-min Rain = 0
KCH1 100820Z 03005KT 01/01 A3015 RMK A01 T00120005  RH  096%=      5-min Rain = 0
KCH1 100821Z 03006KT 01/01 A3015 RMK A01 T00120006  RH  096%=      5-min Rain = 0
KCH1 100822Z 02006KT 01/01 A3015 RMK A01 T00120005  RH  095%=      5-min Rain = 0
KCH1 100823Z 03005KT 01/01 A3015 RMK A01 T00120005  RH  095%=      5-min Rain = 0
KCH1 100824Z 03006KT 01/01 A3015 RMK A01 T00120006  RH  095%=      5-min Rain = 0
KCH1 100825Z 03005KT 01/01 A3015 RMK A01 T00120005  RH  095%=      5-min Rain = 0
KCH1 100826Z 04004KT 01/01 A3015 RMK A01 T00120005  RH  095%=      5-min Rain = 0.01
KCH1 100827Z 03005KT 01/01 A3015 RMK A01 T00120005  RH  095%=      5-min Rain = 0
KCH1 100828Z 02005KT 01/01 A3015 RMK A01 T00120005  RH  095%=      5-min Rain = 0
KCH1 100829Z 04004KT 01/01 A3015 RMK A01 T00120005  RH  095%=      5-min Rain = 0
KCH1 100830Z 04008KT 01/01 A3015 RMK A01 T00120005  RH  095%=      5-min Rain = 0
KCH1 100831Z 04008KT 01/01 A3015 RMK A01 T00120005  RH  095%=      5-min Rain = 0
KCH1 100832Z 05008KT 01/00 A3015 RMK A01 T00120004  RH  094%=      5-min Rain = 0
KCH1 100833Z 04008KT 01/00 A3015 RMK A01 T00120003  RH  094%=      5-min Rain = 0
KCH1 100834Z 03005KT 01/00 A3015 RMK A01 T00120002  RH  093%=      5-min Rain = 0
KCH1 100835Z 03006KT 01/00 A3015 RMK A01 T00120002  RH  093%=      5-min Rain = 0.01
KCH1 100836Z 04005KT 01/00 A3015 RMK A01 T00120003  RH  094%=      5-min Rain = 0
KCH1 100837Z 05007KT 01/00 A3015 RMK A01 T00120003  RH  094%=      5-min Rain = 0
KCH1 100838Z 04004KT 01/00 A3015 RMK A01 T00120003  RH  094%=      5-min Rain = 0
KCH1 100839Z 04005KT 01/00 A3015 RMK A01 T00120004  RH  094%=      5-min Rain = 0
KCH1 100840Z 04004KT 01/00 A3015 RMK A01 T00120004  RH  095%=      5-min Rain = 0
KCH1 100841Z 04004KT 01/01 A3015 RMK A01 T00120005  RH  095%=      5-min Rain = 0
KCH1 100842Z 04006KT 01/01 A3015 RMK A01 T00120005  RH  095%=      5-min Rain = 0
KCH1 100843Z 04007KT 01/01 A3015 RMK A01 T00120005  RH  095%=      5-min Rain = 0
KCH1 100844Z 05007KT 01/00 A3015 RMK A01 T00120003  RH  094%=      5-min Rain = 0
KCH1 100845Z 04005KT 01/00 A3015 RMK A01 T00120003  RH  094%=      5-min Rain = 0
KCH1 100846Z 03004KT 01/00 A3015 RMK A01 T00120003  RH  094%=      5-min Rain = 0.01
KCH1 100847Z 04005KT 01/00 A3015 RMK A01 T00120003  RH  094%=      5-min Rain = 0
KCH1 100848Z 04008KT 01/00 A3015 RMK A01 T00120003  RH  094%=      5-min Rain = 0
KCH1 100849Z 04008KT 01/00 A3015 RMK A01 T00120003  RH  094%=      5-min Rain = 0
KCH1 100850Z 04006KT 01/00 A3015 RMK A01 T00120003  RH  094%=      5-min Rain = 0
KCH1 100851Z 05007KT 01/00 A3015 RMK A01 T00120002  RH  094%=      5-min Rain = 0
KCH1 100852Z 03006KT 01/00 A3015 RMK A01 T00120003  RH  094%=      5-min Rain = 0
KCH1 100853Z 03005KT 01/00 A3015 RMK A01 T00120003  RH  094%=      5-min Rain = 0.01
KCH1 100854Z 04005KT 01/00 A3015 RMK A01 T00110003  RH  094%=      5-min Rain = 0
KCH1 100855Z 03004KT 01/00 A3015 RMK A01 T00120004  RH  094%=      5-min Rain = 0
KCH1 100856Z 03003KT 01/00 A3015 RMK A01 T00120004  RH  094%=      5-min Rain = 0
KCH1 100857Z 04005KT 01/00 A3015 RMK A01 T00120004  RH  095%=      5-min Rain = 0
KCH1 100858Z 05007KT 01/00 A3015 RMK A01 T00110004  RH  095%=      5-min Rain = 0
KCH1 100859Z 04007KT 01/00 A3014 RMK A01 T00110004  RH  095%=      5-min Rain = 0
KCH1 100900Z 04006KT 01/00 A3015 RMK A01 T00110003  RH  095%=      5-min Rain = 0
KCH1 100901Z 03005KT 01/00 A3015 RMK A01 T00110004  RH  095%=      5-min Rain = 0.01
KCH1 100902Z 03005KT 01/00 A3015 RMK A01 T00110004  RH  095%=      5-min Rain = 0
KCH1 100903Z 03006KT 01/01 A3015 RMK A01 T00110005  RH  096%=      5-min Rain = 0
KCH1 100904Z 02006KT 01/01 A3015 RMK A01 T00110005  RH  095%=      5-min Rain = 0
KCH1 100905Z 03006KT 01/01 A3015 RMK A01 T00110005  RH  095%=      5-min Rain = 0
KCH1 100906Z 03007KT 01/00 A3015 RMK A01 T00110004  RH  095%=      5-min Rain = 0
KCH1 100907Z 03005KT 01/00 A3015 RMK A01 T00110004  RH  095%=      5-min Rain = 0.01
KCH1 100908Z 03004KT 01/00 A3015 RMK A01 T00110004  RH  095%=      5-min Rain = 0
KCH1 100909Z 02004KT 01/00 A3015 RMK A01 T00110004  RH  095%=      5-min Rain = 0
KCH1 100910Z 02004KT 01/00 A3015 RMK A01 T00110004  RH  096%=      5-min Rain = 0
KCH1 100911Z 02005KT 01/01 A3015 RMK A01 T00110005  RH  096%=      5-min Rain = 0
KCH1 100912Z 02006KT 01/01 A3015 RMK A01 T00110005  RH  096%=      5-min Rain = 0
KCH1 100913Z 02005KT 01/01 A3015 RMK A01 T00110005  RH  096%=      5-min Rain = 0.01
KCH1 100914Z 02005KT 01/01 A3015 RMK A01 T00110005  RH  096%=      5-min Rain = 0
KCH1 100915Z 04006KT 01/00 A3015 RMK A01 T00110004  RH  095%=      5-min Rain = 0
KCH1 100916Z 02006KT 01/00 A3015 RMK A01 T00110004  RH  095%=      5-min Rain = 0
KCH1 100917Z 02006KT 01/00 A3015 RMK A01 T00110004  RH  095%=      5-min Rain = 0
KCH1 100918Z 03005KT 01/00 A3015 RMK A01 T00110004  RH  095%=      5-min Rain = 0.01
KCH1 100919Z 03006KT 01/00 A3015 RMK A01 T00110003  RH  095%=      5-min Rain = 0
KCH1 100920Z 03008KT 01/00 A3015 RMK A01 T00110003  RH  095%=      5-min Rain = 0
KCH1 100921Z 02007KT 01/00 A3015 RMK A01 T00110003  RH  095%=      5-min Rain = 0
KCH1 100922Z 03007KT 01/00 A3015 RMK A01 T00110002  RH  094%=      5-min Rain = 0
KCH1 100923Z 01007KT 01/00 A3015 RMK A01 T00110002  RH  094%=      5-min Rain = 0
KCH1 100924Z 01007G12KT 01/00 A3015 RMK A01 T00110003  RH  094%=      5-min Rain = 0.01
KCH1 100925Z 02008KT 01/00 A3015 RMK A01 T00110003  RH  094%=      5-min Rain = 0
KCH1 100926Z 01006KT 01/00 A3015 RMK A01 T00110002  RH  094%=      5-min Rain = 0
KCH1 100927Z 01004KT 01/00 A3015 RMK A01 T00110002  RH  094%=      5-min Rain = 0
KCH1 100928Z 02005KT 01/00 A3015 RMK A01 T00110003  RH  094%=      5-min Rain = 0
KCH1 100929Z 02006KT 01/00 A3015 RMK A01 T00110003  RH  095%=      5-min Rain = 0
KCH1 100930Z 01005KT 01/00 A3015 RMK A01 T00110003  RH  095%=      5-min Rain = 0.01
KCH1 100931Z 01006KT 01/00 A3015 RMK A01 T00100003  RH  095%=      5-min Rain = 0
KCH1 100932Z 02004KT 01/00 A3016 RMK A01 T00100003  RH  095%=      5-min Rain = 0
KCH1 100933Z 02004KT 01/00 A3016 RMK A01 T00100003  RH  095%=      5-min Rain = 0
KCH1 100934Z 02004KT 01/00 A3016 RMK A01 T00100003  RH  095%=      5-min Rain = 0
KCH1 100935Z 02003KT 01/00 A3016 RMK A01 T00110004  RH  096%=      5-min Rain = 0
KCH1 100936Z 03004KT 01/01 A3016 RMK A01 T00110005  RH  096%=      5-min Rain = 0.01
KCH1 100937Z 02003KT 01/01 A3016 RMK A01 T00110005  RH  096%=      5-min Rain = 0
KCH1 100938Z 01002KT 01/01 A3016 RMK A01 T00110005  RH  096%=      5-min Rain = 0
KCH1 100939Z 01003KT 01/01 A3016 RMK A01 T00110005  RH  096%=      5-min Rain = 0
KCH1 100940Z 01003KT 01/01 A3016 RMK A01 T00110005  RH  096%=      5-min Rain = 0
KCH1 100941Z 00003KT 01/01 A3017 RMK A01 T00110005  RH  096%=      5-min Rain = 0
KCH1 100942Z 01003KT 01/01 A3017 RMK A01 T00110005  RH  096%=      5-min Rain = 0.01
KCH1 100943Z 00004KT 01/01 A3017 RMK A01 T00110005  RH  096%=      5-min Rain = 0
KCH1 100944Z 01004KT 01/01 A3017 RMK A01 T00110006  RH  096%=      5-min Rain = 0
KCH1 100945Z 36003KT 01/01 A3017 RMK A01 T00110006  RH  096%=      5-min Rain = 0
KCH1 100946Z 00006KT 01/01 A3017 RMK A01 T00110006  RH  097%=      5-min Rain = 0
KCH1 100947Z 01005KT 01/01 A3017 RMK A01 T00110006  RH  097%=      5-min Rain = 0
KCH1 100948Z 01005KT 01/01 A3017 RMK A01 T00110006  RH  097%=      5-min Rain = 0.01
KCH1 100949Z 00005KT 01/01 A3017 RMK A01 T00110007  RH  097%=      5-min Rain = 0
KCH1 100950Z 01005KT 01/01 A3017 RMK A01 T00110006  RH  097%=      5-min Rain = 0
KCH1 100951Z 01007KT 01/01 A3017 RMK A01 T00120007  RH  097%=      5-min Rain = 0
KCH1 100952Z 01008KT 01/01 A3017 RMK A01 T00120007  RH  097%=      5-min Rain = 0
KCH1 100953Z 01006KT 01/01 A3017 RMK A01 T00120007  RH  096%=      5-min Rain = 0.01
KCH1 100954Z 01005KT 01/01 A3017 RMK A01 T00120007  RH  096%=      5-min Rain = 0
KCH1 100955Z 01005KT 01/01 A3017 RMK A01 T00120007  RH  096%=      5-min Rain = 0
KCH1 100956Z 01007KT 01/01 A3017 RMK A01 T00120007  RH  097%=      5-min Rain = 0
KCH1 100957Z 01006KT 01/01 A3017 RMK A01 T00120007  RH  097%=      5-min Rain = 0.01
KCH1 100958Z 01005KT 01/01 A3017 RMK A01 T00120007  RH  097%=      5-min Rain = 0
KCH1 100959Z 01007KT 01/01 A3017 RMK A01 T00120007  RH  097%=      5-min Rain = 0
KCH1 101000Z 01007KT 01/01 A3017 RMK A01 T00120007  RH  097%=      5-min Rain = 0.01
KCH1 101001Z 01006KT 01/01 A3017 RMK A01 T00120007  RH  097%=      5-min Rain = 0
KCH1 101002Z 00005KT 01/01 A3017 RMK A01 T00120007  RH  097%=      5-min Rain = 0
KCH1 101003Z 01005KT 01/01 A3017 RMK A01 T00120007  RH  097%=      5-min Rain = 0
KCH1 101004Z 00005KT 01/01 A3017 RMK A01 T00120007  RH  097%=      5-min Rain = 0
KCH1 101005Z 00006KT 01/01 A3017 RMK A01 T00120006  RH  096%=      5-min Rain = 0.01
KCH1 101006Z 01006KT 01/01 A3017 RMK A01 T00120006  RH  096%=      5-min Rain = 0
KCH1 101007Z 01005KT 01/01 A3017 RMK A01 T00120006  RH  096%=      5-min Rain = 0
KCH1 101008Z 02005KT 01/01 A3017 RMK A01 T00120006  RH  096%=      5-min Rain = 0
KCH1 101009Z 03005KT 01/01 A3017 RMK A01 T00120006  RH  096%=      5-min Rain = 0
KCH1 101010Z 03005KT 01/01 A3017 RMK A01 T00120007  RH  096%=      5-min Rain = 0
KCH1 101011Z 03004KT 01/01 A3017 RMK A01 T00120007  RH  097%=      5-min Rain = 0
KCH1 101012Z 02004KT 01/01 A3017 RMK A01 T00120007  RH  097%=      5-min Rain = 0.01
KCH1 101013Z 00003KT 01/01 A3017 RMK A01 T00120007  RH  097%=      5-min Rain = 0
KCH1 101014Z 01004KT 01/01 A3017 RMK A01 T00120008  RH  097%=      5-min Rain = 0
KCH1 101015Z 01003KT 01/01 A3017 RMK A01 T00120008  RH  097%=      5-min Rain = 0
KCH1 101016Z 01002KT 01/01 A3017 RMK A01 T00120007  RH  097%=      5-min Rain = 0
KCH1 101017Z 02003KT 01/01 A3017 RMK A01 T00120008  RH  097%=      5-min Rain = 0.01
KCH1 101018Z 04003KT 01/01 A3017 RMK A01 T00120008  RH  097%=      5-min Rain = 0
KCH1 101019Z 04003KT 01/01 A3017 RMK A01 T00120008  RH  097%=      5-min Rain = 0
KCH1 101020Z 04004KT 01/01 A3017 RMK A01 T00120008  RH  097%=      5-min Rain = 0
KCH1 101021Z 04004KT 01/01 A3017 RMK A01 T00120008  RH  097%=      5-min Rain = 0
KCH1 101022Z 04004KT 01/01 A3017 RMK A01 T00120008  RH  097%=      5-min Rain = 0
KCH1 101023Z 05005KT 01/01 A3017 RMK A01 T00130008  RH  097%=      5-min Rain = 0.01
KCH1 101024Z 05005KT 01/01 A3017 RMK A01 T00130009  RH  097%=      5-min Rain = 0
KCH1 101025Z 05005KT 01/01 A3016 RMK A01 T00130009  RH  097%=      5-min Rain = 0
KCH1 101026Z 05006KT 01/01 A3016 RMK A01 T00130008  RH  097%=      5-min Rain = 0
KCH1 101027Z 04005KT 01/01 A3016 RMK A01 T00130007  RH  096%=      5-min Rain = 0
KCH1 101028Z 03004KT 01/01 A3016 RMK A01 T00130006  RH  096%=      5-min Rain = 0
KCH1 101029Z 04006KT 01/01 A3016 RMK A01 T00130006  RH  096%=      5-min Rain = 0
KCH1 101030Z 03006KT 01/01 A3016 RMK A01 T00130006  RH  096%=      5-min Rain = 0
KCH1 101031Z 04005KT 01/01 A3016 RMK A01 T00130007  RH  096%=      5-min Rain = 0
KCH1 101032Z 02005KT 01/01 A3016 RMK A01 T00130007  RH  096%=      5-min Rain = 0.01
KCH1 101033Z 03005KT 01/01 A3016 RMK A01 T00130007  RH  096%=      5-min Rain = 0
KCH1 101034Z 02004KT 01/01 A3016 RMK A01 T00130007  RH  096%=      5-min Rain = 0
KCH1 101035Z 02005KT 01/01 A3016 RMK A01 T00130007  RH  096%=      5-min Rain = 0
KCH1 101036Z 04005KT 01/01 A3017 RMK A01 T00130007  RH  096%=      5-min Rain = 0
KCH1 101037Z 03005KT 01/01 A3017 RMK A01 T00130007  RH  096%=      5-min Rain = 0
KCH1 101038Z 02004KT 01/01 A3017 RMK A01 T00130007  RH  096%=      5-min Rain = 0
KCH1 101039Z 02003KT 01/01 A3017 RMK A01 T00130007  RH  096%=      5-min Rain = 0
KCH1 101040Z 01005KT 01/01 A3017 RMK A01 T00130007  RH  096%=      5-min Rain = 0.01
KCH1 101041Z 03005KT 01/01 A3017 RMK A01 T00130007  RH  096%=      5-min Rain = 0
KCH1 101042Z 02007KT 01/01 A3017 RMK A01 T00130007  RH  096%=      5-min Rain = 0
KCH1 101043Z 01006KT 01/01 A3017 RMK A01 T00130006  RH  095%=      5-min Rain = 0
KCH1 101044Z 01005KT 01/01 A3017 RMK A01 T00130006  RH  095%=      5-min Rain = 0
KCH1 101045Z 02005KT 01/01 A3017 RMK A01 T00130007  RH  095%=      5-min Rain = 0
KCH1 101046Z 01005KT 01/01 A3017 RMK A01 T00130006  RH  095%=      5-min Rain = 0
KCH1 101047Z 01005KT 01/01 A3017 RMK A01 T00130007  RH  096%=      5-min Rain = 0
KCH1 101048Z 01005KT 01/01 A3017 RMK A01 T00130007  RH  096%=      5-min Rain = 0
KCH1 101049Z 00006KT 01/01 A3017 RMK A01 T00130007  RH  096%=      5-min Rain = 0.01
KCH1 101050Z 00007KT 01/01 A3017 RMK A01 T00130007  RH  096%=      5-min Rain = 0
KCH1 101051Z 01006KT 01/01 A3017 RMK A01 T00130007  RH  096%=      5-min Rain = 0
KCH1 101052Z 00006KT 01/01 A3017 RMK A01 T00130006  RH  096%=      5-min Rain = 0
KCH1 101053Z 01007KT 01/01 A3017 RMK A01 T00130007  RH  096%=      5-min Rain = 0
KCH1 101054Z 00009KT 01/01 A3017 RMK A01 T00120005  RH  095%=      5-min Rain = 0
KCH1 101055Z 00007KT 01/00 A3017 RMK A01 T00120004  RH  094%=      5-min Rain = 0
KCH1 101056Z 01007KT 01/00 A3017 RMK A01 T00120004  RH  094%=      5-min Rain = 0
KCH1 101057Z 01008KT 01/00 A3017 RMK A01 T00120004  RH  095%=      5-min Rain = 0
KCH1 101058Z 00009KT 01/00 A3017 RMK A01 T00120004  RH  095%=      5-min Rain = 0.01
KCH1 101059Z 00008KT 01/00 A3017 RMK A01 T00120004  RH  095%=      5-min Rain = 0
KCH1 101100Z 00009G14KT 01/00 A3017 RMK A01 T00120004  RH  095%=      5-min Rain = 0
KCH1 101101Z 01008KT 01/00 A3018 RMK A01 T00110004  RH  095%=      5-min Rain = 0
KCH1 101102Z 00008KT 01/00 A3018 RMK A01 T00110003  RH  095%=      5-min Rain = 0
KCH1 101103Z 36008KT 01/00 A3019 RMK A01 T00110003  RH  094%=      5-min Rain = 0
KCH1 101104Z 36006KT 01/00 A3019 RMK A01 T00110002  RH  094%=      5-min Rain = 0
KCH1 101105Z 35007G12KT 01/00 A3019 RMK A01 T00110002  RH  094%=      5-min Rain = 0
KCH1 101106Z 00011KT 01/00 A3019 RMK A01 T00110002  RH  094%=      5-min Rain = 0
KCH1 101107Z 36006KT 01/00 A3019 RMK A01 T00100000  RH  093%=      5-min Rain = 0
KCH1 101108Z 36008KT 01/00 A3019 RMK A01 T00100000  RH  093%=      5-min Rain = 0
KCH1 101109Z 36007KT 01/00 A3019 RMK A01 T001000-0  RH  093%=      5-min Rain = 0
KCH1 101110Z 01009KT 01/M00 A3019 RMK A01 T00101001  RH  093%=      5-min Rain = 0
KCH1 101111Z 00009KT 01/M00 A3019 RMK A01 T00101002  RH  092%=      5-min Rain = 0.01
KCH1 101112Z 00008KT 01/M00 A3019 RMK A01 T00101003  RH  091%=      5-min Rain = 0
KCH1 101113Z 01007KT 01/M00 A3019 RMK A01 T00101002  RH  091%=      5-min Rain = 0
KCH1 101114Z 01007KT 01/M00 A3019 RMK A01 T00101002  RH  092%=      5-min Rain = 0
KCH1 101115Z 01006KT 01/M00 A3019 RMK A01 T00091002  RH  092%=      5-min Rain = 0
KCH1 101116Z 01005KT 01/M00 A3019 RMK A01 T00101001  RH  092%=      5-min Rain = 0
KCH1 101117Z 03003KT 01/M00 A3018 RMK A01 T00091001  RH  093%=      5-min Rain = 0
KCH1 101118Z 02005KT 01/M00 A3018 RMK A01 T00091001  RH  093%=      5-min Rain = 0
KCH1 101119Z 03006KT 01/M00 A3018 RMK A01 T00091001  RH  093%=      5-min Rain = 0
KCH1 101120Z 03008KT 01/M00 A3018 RMK A01 T00091002  RH  093%=      5-min Rain = 0
KCH1 101121Z 03007KT 01/M00 A3018 RMK A01 T00091002  RH  092%=      5-min Rain = 0
KCH1 101122Z 03008KT 01/M00 A3017 RMK A01 T00091003  RH  092%=      5-min Rain = 0
KCH1 101123Z 03007KT 01/M00 A3017 RMK A01 T00091003  RH  092%=      5-min Rain = 0
KCH1 101124Z 02006KT 01/M00 A3017 RMK A01 T00091003  RH  092%=      5-min Rain = 0.01
KCH1 101125Z 02009KT 01/M00 A3017 RMK A01 T00091003  RH  092%=      5-min Rain = 0
KCH1 101126Z 02007KT 01/M00 A3017 RMK A01 T00081003  RH  092%=      5-min Rain = 0
KCH1 101127Z 03008KT 01/M00 A3017 RMK A01 T00081004  RH  092%=      5-min Rain = 0
KCH1 101128Z 02009KT 01/M00 A3017 RMK A01 T00081004  RH  092%=      5-min Rain = 0
KCH1 101129Z 03007KT 01/M01 A3018 RMK A01 T00081005  RH  091%=      5-min Rain = 0
KCH1 101130Z 03006KT 01/M01 A3018 RMK A01 T00081005  RH  091%=      5-min Rain = 0
KCH1 101131Z 04004KT 01/M01 A3018 RMK A01 T00081005  RH  091%=      5-min Rain = 0
KCH1 101132Z 03005KT 01/M00 A3018 RMK A01 T00081004  RH  092%=      5-min Rain = 0
KCH1 101133Z 04006KT 01/M01 A3018 RMK A01 T00081005  RH  092%=      5-min Rain = 0
KCH1 101134Z 04006KT 01/M01 A3018 RMK A01 T00081005  RH  091%=      5-min Rain = 0
KCH1 101135Z 04004KT 01/M01 A3018 RMK A01 T00071005  RH  091%=      5-min Rain = 0
KCH1 101136Z 03006KT 01/M00 A3018 RMK A01 T00081004  RH  092%=      5-min Rain = 0
KCH1 101137Z 04006KT 01/M00 A3018 RMK A01 T00081004  RH  092%=      5-min Rain = 0
KCH1 101138Z 04006KT 01/M00 A3018 RMK A01 T00081003  RH  092%=      5-min Rain = 0
KCH1 101139Z 05008KT 01/M00 A3019 RMK A01 T00081004  RH  091%=      5-min Rain = 0
KCH1 101140Z 04007KT 01/M01 A3019 RMK A01 T00081006  RH  091%=      5-min Rain = 0
KCH1 101141Z 03005KT 01/M01 A3019 RMK A01 T00081006  RH  090%=      5-min Rain = 0
KCH1 101142Z 03007KT 01/M00 A3019 RMK A01 T00091004  RH  091%=      5-min Rain = 0
KCH1 101143Z 04005KT 01/M00 A3019 RMK A01 T00091003  RH  091%=      5-min Rain = 0
KCH1 101144Z 04004KT 01/M00 A3019 RMK A01 T00091004  RH  091%=      5-min Rain = 0
KCH1 101145Z 03005KT 01/M00 A3019 RMK A01 T00091003  RH  092%=      5-min Rain = 0
KCH1 101146Z 03007KT 01/M00 A3019 RMK A01 T00091003  RH  092%=      5-min Rain = 0
KCH1 101147Z 04007KT 01/M00 A3019 RMK A01 T00081003  RH  092%=      5-min Rain = 0
KCH1 101148Z 04006KT 01/M00 A3019 RMK A01 T00081003  RH  092%=      5-min Rain = 0
KCH1 101149Z 03007KT 01/M00 A3019 RMK A01 T00081004  RH  092%=      5-min Rain = 0
KCH1 101150Z 05005KT 01/M00 A3019 RMK A01 T00091003  RH  092%=      5-min Rain = 0
KCH1 101151Z 03005KT 01/M00 A3019 RMK A01 T00091003  RH  092%=      5-min Rain = 0
KCH1 101152Z 04006KT 01/M00 A3019 RMK A01 T00091002  RH  092%=      5-min Rain = 0
KCH1 101153Z 03005KT 01/M00 A302 RMK A01 T00091002  RH  093%=      5-min Rain = 0
KCH1 101154Z 04003KT 01/M00 A302 RMK A01 T00091001  RH  093%=      5-min Rain = 0
KCH1 101155Z 04004KT 01/00 A302 RMK A01 T000900-0  RH  093%=      5-min Rain = 0
KCH1 101156Z 04005KT 01/00 A302 RMK A01 T000900-0  RH  094%=      5-min Rain = 0
KCH1 101157Z 04006KT 01/00 A302 RMK A01 T00090000  RH  094%=      5-min Rain = 0
KCH1 101158Z 04006KT 01/00 A302 RMK A01 T00090000  RH  094%=      5-min Rain = 0
KCH1 101159Z 04005KT 01/M00 A302 RMK A01 T00091001  RH  093%=      5-min Rain = 0
KCH1 101200Z 03006KT 01/M00 A302 RMK A01 T00091002  RH  092%=      5-min Rain = 0
KCH1 101201Z 04006KT 01/M00 A302 RMK A01 T00091002  RH  092%=      5-min Rain = 0
KCH1 101202Z 03006KT 01/M00 A302 RMK A01 T00091003  RH  092%=      5-min Rain = 0
KCH1 101203Z 03004KT 01/M00 A302 RMK A01 T00091002  RH  092%=      5-min Rain = 0
KCH1 101204Z 02003KT 01/M00 A302 RMK A01 T00091001  RH  093%=      5-min Rain = 0
KCH1 101205Z 01005KT 01/00 A302 RMK A01 T00090000  RH  094%=      5-min Rain = 0.01
KCH1 101206Z 02004KT 01/00 A302 RMK A01 T00090000  RH  094%=      5-min Rain = 0
KCH1 101207Z 03004KT 01/00 A302 RMK A01 T000900-0  RH  093%=      5-min Rain = 0
KCH1 101208Z 02004KT 01/00 A302 RMK A01 T000900-0  RH  093%=      5-min Rain = 0
KCH1 101209Z 02004KT 01/00 A302 RMK A01 T00090000  RH  094%=      5-min Rain = 0
KCH1 101210Z 01005KT 01/00 A302 RMK A01 T00090001  RH  094%=      5-min Rain = 0
KCH1 101211Z 01004KT 01/00 A302 RMK A01 T00090001  RH  094%=      5-min Rain = 0
KCH1 101212Z 02004KT 01/00 A302 RMK A01 T00090002  RH  095%=      5-min Rain = 0
KCH1 101213Z 00003KT 01/00 A3021 RMK A01 T00090002  RH  095%=      5-min Rain = 0
KCH1 101214Z 02004KT 01/00 A3021 RMK A01 T00090002  RH  095%=      5-min Rain = 0
KCH1 101215Z 35005KT 01/00 A3021 RMK A01 T00100001  RH  094%=      5-min Rain = 0
KCH1 101216Z 35005KT 01/00 A3021 RMK A01 T00090000  RH  094%=      5-min Rain = 0
KCH1 101217Z 35004KT 01/00 A3021 RMK A01 T000900-0  RH  093%=      5-min Rain = 0
KCH1 101218Z 36005KT 01/00 A3021 RMK A01 T00100000  RH  093%=      5-min Rain = 0
KCH1 101219Z 01004KT 01/00 A3021 RMK A01 T00100000  RH  094%=      5-min Rain = 0
KCH1 101220Z 36005KT 01/00 A3022 RMK A01 T00100001  RH  094%=      5-min Rain = 0
KCH1 101221Z 36004KT 01/00 A3022 RMK A01 T00100001  RH  094%=      5-min Rain = 0
KCH1 101222Z 36006KT 01/00 A3022 RMK A01 T00100001  RH  094%=      5-min Rain = 0
KCH1 101223Z 35006KT 01/00 A3022 RMK A01 T00100001  RH  094%=      5-min Rain = 0
KCH1 101224Z 36005KT 01/00 A3022 RMK A01 T00100001  RH  094%=      5-min Rain = 0
KCH1 101225Z 36007KT 01/00 A3022 RMK A01 T00100001  RH  094%=      5-min Rain = 0
KCH1 101226Z 35006KT 01/M00 A3022 RMK A01 T00091001  RH  093%=      5-min Rain = 0
KCH1 101227Z 36006KT 01/M00 A3023 RMK A01 T00091002  RH  092%=      5-min Rain = 0
KCH1 101228Z 36008KT 01/M00 A3023 RMK A01 T00091003  RH  092%=      5-min Rain = 0
KCH1 101229Z 36009KT 01/M01 A3023 RMK A01 T00091005  RH  091%=      5-min Rain = 0
KCH1 101230Z 00008KT 01/M01 A3023 RMK A01 T00081007  RH  090%=      5-min Rain = 0
KCH1 101231Z 36007KT 01/M01 A3023 RMK A01 T00081008  RH  089%=      5-min Rain = 0
KCH1 101232Z 00007KT 01/M01 A3023 RMK A01 T00081010  RH  088%=      5-min Rain = 0.01
KCH1 101233Z 01006KT 01/M01 A3023 RMK A01 T00071010  RH  088%=      5-min Rain = 0
KCH1 101234Z 00007KT 01/M01 A3023 RMK A01 T00071009  RH  089%=      5-min Rain = 0
KCH1 101235Z 01006KT 01/M01 A3023 RMK A01 T00071009  RH  089%=      5-min Rain = 0
KCH1 101236Z 00004KT 01/M01 A3023 RMK A01 T00071008  RH  090%=      5-min Rain = 0
KCH1 101237Z 01004KT 01/M01 A3023 RMK A01 T00061008  RH  090%=      5-min Rain = 0
KCH1 101238Z 01006KT 01/M01 A3023 RMK A01 T00061007  RH  091%=      5-min Rain = 0
KCH1 101239Z 01006KT 01/M01 A3023 RMK A01 T00051008  RH  091%=      5-min Rain = 0
KCH1 101240Z 02005KT 01/M01 A3023 RMK A01 T00051009  RH  090%=      5-min Rain = 0
KCH1 101241Z 03005KT 01/M01 A3023 RMK A01 T00051008  RH  091%=      5-min Rain = 0
KCH1 101242Z 03005KT 01/M01 A3023 RMK A01 T00051009  RH  090%=      5-min Rain = 0
KCH1 101243Z 02005KT 01/M01 A3023 RMK A01 T00051009  RH  090%=      5-min Rain = 0
KCH1 101244Z 03004KT 01/M01 A3023 RMK A01 T00051009  RH  091%=      5-min Rain = 0
KCH1 101245Z 03005KT 01/M01 A3023 RMK A01 T00051010  RH  090%=      5-min Rain = 0
KCH1 101246Z 02004KT 01/M01 A3023 RMK A01 T00051010  RH  090%=      5-min Rain = 0
KCH1 101247Z 02005KT 01/M01 A3023 RMK A01 T00051009  RH  090%=      5-min Rain = 0
KCH1 101248Z 02003KT 01/M01 A3023 RMK A01 T00051010  RH  090%=      5-min Rain = 0.01
KCH1 101249Z 02002KT 01/M01 A3024 RMK A01 T00051008  RH  091%=      5-min Rain = 0
KCH1 101250Z 01003KT 01/M01 A3024 RMK A01 T00051007  RH  092%=      5-min Rain = 0
KCH1 101251Z 01002KT 01/M01 A3024 RMK A01 T00051008  RH  091%=      5-min Rain = 0
KCH1 101252Z 01003KT 01/M01 A3024 RMK A01 T00051007  RH  091%=      5-min Rain = 0
KCH1 101253Z 02002KT 01/M01 A3024 RMK A01 T00051008  RH  091%=      5-min Rain = 0
KCH1 101254Z 01004KT 01/M01 A3024 RMK A01 T00051009  RH  091%=      5-min Rain = 0
KCH1 101255Z 01005KT 01/M01 A3024 RMK A01 T00051008  RH  091%=      5-min Rain = 0
KCH1 101256Z 01004KT 01/M01 A3024 RMK A01 T00051010  RH  090%=      5-min Rain = 0
KCH1 101257Z 02003KT 01/M01 A3024 RMK A01 T00051010  RH  090%=      5-min Rain = 0
KCH1 101258Z 01004KT 01/M01 A3024 RMK A01 T00051010  RH  090%=      5-min Rain = 0
KCH1 101259Z 01003KT 01/M01 A3024 RMK A01 T00051010  RH  090%=      5-min Rain = 0
KCH1 101300Z 02003KT 01/M01 A3024 RMK A01 T00051009  RH  091%=      5-min Rain = 0
KCH1 101301Z 03003KT 01/M01 A3024 RMK A01 T00051008  RH  091%=      5-min Rain = 0
KCH1 101302Z 02004KT 01/M01 A3024 RMK A01 T00051008  RH  091%=      5-min Rain = 0
KCH1 101303Z 04004KT 01/M01 A3023 RMK A01 T00051009  RH  091%=      5-min Rain = 0
KCH1 101304Z 02004KT 01/M01 A3023 RMK A01 T00051009  RH  091%=      5-min Rain = 0
KCH1 101305Z 03005KT 01/M01 A3023 RMK A01 T00051008  RH  091%=      5-min Rain = 0
KCH1 101306Z 03005KT 01/M01 A3023 RMK A01 T00051008  RH  091%=      5-min Rain = 0
KCH1 101307Z 02005KT 01/M01 A3023 RMK A01 T00051008  RH  091%=      5-min Rain = 0
KCH1 101308Z 03004KT 01/M01 A3023 RMK A01 T00051008  RH  091%=      5-min Rain = 0
KCH1 101309Z 02005KT 01/M01 A3023 RMK A01 T00051008  RH  091%=      5-min Rain = 0
KCH1 101310Z 03004KT 01/M01 A3023 RMK A01 T00051007  RH  091%=      5-min Rain = 0
KCH1 101311Z 03005KT 01/M01 A3023 RMK A01 T00061005  RH  092%=      5-min Rain = 0
KCH1 101312Z 03004KT 01/M00 A3022 RMK A01 T00061004  RH  093%=      5-min Rain = 0
KCH1 101313Z 02006KT 01/M00 A3022 RMK A01 T00061003  RH  093%=      5-min Rain = 0
KCH1 101314Z 03006KT 01/M00 A3022 RMK A01 T00061004  RH  093%=      5-min Rain = 0
KCH1 101315Z 03005KT 01/M01 A3023 RMK A01 T00061005  RH  092%=      5-min Rain = 0
KCH1 101316Z 02004KT 01/M01 A3023 RMK A01 T00061006  RH  092%=      5-min Rain = 0.01
KCH1 101317Z 02005KT 01/M01 A3023 RMK A01 T00061005  RH  093%=      5-min Rain = 0
KCH1 101318Z 01006KT 01/M00 A3023 RMK A01 T00061004  RH  093%=      5-min Rain = 0
KCH1 101319Z 02005KT 01/M01 A3022 RMK A01 T00061005  RH  092%=      5-min Rain = 0
KCH1 101320Z 01005KT 01/M01 A3022 RMK A01 T00061006  RH  092%=      5-min Rain = 0
KCH1 101321Z 01004KT 01/M01 A3023 RMK A01 T00061006  RH  092%=      5-min Rain = 0
KCH1 101322Z 00004KT 01/M00 A3023 RMK A01 T00061004  RH  093%=      5-min Rain = 0
KCH1 101323Z 01005KT 01/M01 A3023 RMK A01 T00061005  RH  092%=      5-min Rain = 0
KCH1 101324Z 01005KT 01/M01 A3023 RMK A01 T00061006  RH  092%=      5-min Rain = 0
KCH1 101325Z 02004KT 01/M01 A3023 RMK A01 T00061006  RH  092%=      5-min Rain = 0
KCH1 101326Z 01004KT 01/M01 A3023 RMK A01 T00061006  RH  092%=      5-min Rain = 0
KCH1 101327Z 01004KT 01/M01 A3023 RMK A01 T00061005  RH  092%=      5-min Rain = 0
KCH1 101328Z 01005KT 01/M01 A3023 RMK A01 T00061005  RH  092%=      5-min Rain = 0
KCH1 101329Z 01006KT 01/M01 A3023 RMK A01 T00061005  RH  092%=      5-min Rain = 0
KCH1 101330Z 02005KT 01/M01 A3023 RMK A01 T00061007  RH  091%=      5-min Rain = 0
KCH1 101331Z 01005KT 01/M01 A3023 RMK A01 T00061007  RH  091%=      5-min Rain = 0
KCH1 101332Z 01006KT 01/M01 A3023 RMK A01 T00061007  RH  091%=      5-min Rain = 0
KCH1 101333Z 36007KT 01/M01 A3023 RMK A01 T00061008  RH  090%=      5-min Rain = 0
KCH1 101334Z 01007KT 01/M01 A3023 RMK A01 T00061009  RH  089%=      5-min Rain = 0
KCH1 101335Z 02006KT 01/M01 A3023 RMK A01 T00061009  RH  089%=      5-min Rain = 0
KCH1 101336Z 02006KT 01/M01 A3023 RMK A01 T00061008  RH  090%=      5-min Rain = 0
KCH1 101337Z 02008KT 01/M01 A3023 RMK A01 T00061009  RH  090%=      5-min Rain = 0
KCH1 101338Z 02007KT 01/M01 A3022 RMK A01 T00061010  RH  089%=      5-min Rain = 0
KCH1 101339Z 03008KT 01/M01 A3022 RMK A01 T00061010  RH  089%=      5-min Rain = 0
KCH1 101340Z 03007KT 01/M01 A3022 RMK A01 T00061010  RH  089%=      5-min Rain = 0
KCH1 101341Z 03008KT 01/M01 A3022 RMK A01 T00061010  RH  089%=      5-min Rain = 0
KCH1 101342Z 04006KT 01/M01 A3022 RMK A01 T00061011  RH  089%=      5-min Rain = 0
KCH1 101343Z 03005KT 01/M01 A3022 RMK A01 T00061010  RH  089%=      5-min Rain = 0
KCH1 101344Z 02006KT 01/M01 A3022 RMK A01 T00071008  RH  090%=      5-min Rain = 0
KCH1 101345Z 02005KT 01/M01 A3022 RMK A01 T00061008  RH  091%=      5-min Rain = 0
KCH1 101346Z 02006KT 01/M01 A3022 RMK A01 T00061007  RH  091%=      5-min Rain = 0
KCH1 101347Z 02005KT 01/M01 A3023 RMK A01 T00061007  RH  091%=      5-min Rain = 0
KCH1 101348Z 02005KT 01/M01 A3023 RMK A01 T00061007  RH  091%=      5-min Rain = 0
KCH1 101349Z 02005KT 01/M01 A3023 RMK A01 T00061007  RH  091%=      5-min Rain = 0
KCH1 101350Z 01008KT 01/M01 A3023 RMK A01 T00061007  RH  091%=      5-min Rain = 0
KCH1 101351Z 02009KT 01/M01 A3023 RMK A01 T00061009  RH  089%=      5-min Rain = 0
KCH1 101352Z 02008KT 01/M01 A3023 RMK A01 T00071011  RH  088%=      5-min Rain = 0
KCH1 101353Z 01007KT 01/M01 A3023 RMK A01 T00061013  RH  087%=      5-min Rain = 0
KCH1 101354Z 01006KT 01/M01 A3024 RMK A01 T00071012  RH  087%=      5-min Rain = 0
KCH1 101355Z 36004KT 01/M01 A3024 RMK A01 T00071011  RH  088%=      5-min Rain = 0
KCH1 101356Z 35004KT 01/M01 A3024 RMK A01 T00071009  RH  089%=      5-min Rain = 0
KCH1 101357Z 01005KT 01/M01 A3025 RMK A01 T00081009  RH  089%=      5-min Rain = 0
KCH1 101358Z 36004KT 01/M01 A3025 RMK A01 T00081010  RH  088%=      5-min Rain = 0
KCH1 101359Z 36004KT 01/M01 A3025 RMK A01 T00081010  RH  088%=      5-min Rain = 0
KCH1 101400Z 01004KT 01/M01 A3025 RMK A01 T00081010  RH  088%=      5-min Rain = 0
KCH1 101401Z 36003KT 01/M01 A3025 RMK A01 T00081009  RH  088%=      5-min Rain = 0
KCH1 101402Z 02004KT 01/M01 A3026 RMK A01 T00081009  RH  088%=      5-min Rain = 0
KCH1 101403Z 03004KT 01/M01 A3026 RMK A01 T00081010  RH  087%=      5-min Rain = 0
KCH1 101404Z 02003KT 01/M01 A3026 RMK A01 T00081013  RH  086%=      5-min Rain = 0
KCH1 101405Z 06003KT 01/M01 A3026 RMK A01 T00081013  RH  086%=      5-min Rain = 0
KCH1 101406Z 05003KT 01/M01 A3026 RMK A01 T00091013  RH  086%=      5-min Rain = 0
KCH1 101407Z 04004KT 01/M01 A3027 RMK A01 T00091014  RH  085%=      5-min Rain = 0
KCH1 101408Z 04003KT 01/M01 A3027 RMK A01 T00091013  RH  085%=      5-min Rain = 0
KCH1 101409Z 04002KT 01/M01 A3027 RMK A01 T00091012  RH  086%=      5-min Rain = 0
KCH1 101410Z 03002KT 01/M01 A3028 RMK A01 T00091012  RH  086%=      5-min Rain = 0
KCH1 101411Z 02002KT 01/M01 A3028 RMK A01 T00091011  RH  086%=      5-min Rain = 0
KCH1 101412Z 03001KT 01/M01 A3028 RMK A01 T00091011  RH  087%=      5-min Rain = 0
KCH1 101413Z 04001KT 01/M01 A3028 RMK A01 T00091012  RH  086%=      5-min Rain = 0
KCH1 101414Z 03001KT 01/M02 A3028 RMK A01 T00091017  RH  083%=      5-min Rain = 0
KCH1 101415Z 04000KT 01/M02 A3028 RMK A01 T00091020  RH  081%=      5-min Rain = 0
KCH1 101416Z 00000KT 01/M02 A3028 RMK A01 T00091020  RH  081%=      5-min Rain = 0
KCH1 101417Z 00000KT 01/M02 A3028 RMK A01 T00101017  RH  082%=      5-min Rain = 0
KCH1 101418Z 00000KT 01/M02 A3028 RMK A01 T00101015  RH  084%=      5-min Rain = 0
KCH1 101419Z 00000KT 01/M01 A3028 RMK A01 T00101014  RH  084%=      5-min Rain = 0
KCH1 101420Z 14000KT 01/M01 A3028 RMK A01 T00111011  RH  085%=      5-min Rain = 0
KCH1 101421Z 14000KT 01/M01 A3028 RMK A01 T00111011  RH  085%=      5-min Rain = 0
KCH1 101422Z 14001KT 01/M01 A3028 RMK A01 T00111011  RH  086%=      5-min Rain = 0
KCH1 101423Z 00000KT 01/M01 A3028 RMK A01 T00111009  RH  087%=      5-min Rain = 0
KCH1 101424Z 00000KT 01/M01 A3028 RMK A01 T00111007  RH  088%=      5-min Rain = 0
KCH1 101425Z 04000KT 01/M01 A3028 RMK A01 T00111006  RH  088%=      5-min Rain = 0
KCH1 101426Z 07001KT 01/M01 A3028 RMK A01 T00111009  RH  086%=      5-min Rain = 0
KCH1 101427Z 07002KT 01/M01 A3027 RMK A01 T00111011  RH  085%=      5-min Rain = 0
KCH1 101428Z 06002KT 01/M01 A3027 RMK A01 T00111013  RH  084%=      5-min Rain = 0
KCH1 101429Z 06003KT 01/M01 A3027 RMK A01 T00111012  RH  085%=      5-min Rain = 0
KCH1 101430Z 06002KT 01/M01 A3028 RMK A01 T00111010  RH  086%=      5-min Rain = 0
KCH1 101431Z 05002KT 01/M01 A3028 RMK A01 T00111009  RH  087%=      5-min Rain = 0
KCH1 101432Z 04002KT 01/M01 A3028 RMK A01 T00111008  RH  087%=      5-min Rain = 0
KCH1 101433Z 05004KT 01/M01 A3028 RMK A01 T00111007  RH  088%=      5-min Rain = 0
KCH1 101434Z 06005KT 01/M01 A3027 RMK A01 T00111008  RH  087%=      5-min Rain = 0
KCH1 101435Z 06006KT 01/M01 A3027 RMK A01 T00111007  RH  088%=      5-min Rain = 0
KCH1 101436Z 05006KT 01/M01 A3027 RMK A01 T00111007  RH  088%=      5-min Rain = 0
KCH1 101437Z 04005KT 01/M01 A3027 RMK A01 T00111006  RH  088%=      5-min Rain = 0
KCH1 101438Z 04003KT 01/M01 A3028 RMK A01 T00111006  RH  088%=      5-min Rain = 0
KCH1 101439Z 03003KT 01/M01 A3028 RMK A01 T00111007  RH  088%=      5-min Rain = 0
KCH1 101440Z 05003KT 01/M01 A3028 RMK A01 T00111008  RH  087%=      5-min Rain = 0
KCH1 101441Z 03003KT 01/M01 A3028 RMK A01 T00111011  RH  085%=      5-min Rain = 0
KCH1 101442Z 03003KT 01/M01 A3028 RMK A01 T00111011  RH  085%=      5-min Rain = 0
KCH1 101443Z 02003KT 01/M01 A3029 RMK A01 T00111010  RH  086%=      5-min Rain = 0
KCH1 101444Z 01003KT 01/M01 A3029 RMK A01 T00111009  RH  086%=      5-min Rain = 0
KCH1 101445Z 01004KT 01/M01 A3029 RMK A01 T00111009  RH  087%=      5-min Rain = 0
KCH1 101446Z 01004KT 01/M01 A3029 RMK A01 T00111008  RH  087%=      5-min Rain = 0
KCH1 101447Z 01005KT 01/M01 A3029 RMK A01 T00111008  RH  087%=      5-min Rain = 0
KCH1 101448Z 01004KT 01/M01 A3028 RMK A01 T00111008  RH  087%=      5-min Rain = 0
KCH1 101449Z 01004KT 01/M01 A3029 RMK A01 T00111007  RH  087%=      5-min Rain = 0
KCH1 101450Z 00004KT 01/M01 A3029 RMK A01 T00111006  RH  088%=      5-min Rain = 0
KCH1 101451Z 00005KT 01/M01 A3029 RMK A01 T00111005  RH  089%=      5-min Rain = 0
KCH1 101452Z 00004KT 01/M01 A3029 RMK A01 T00111006  RH  088%=      5-min Rain = 0
KCH1 101453Z 00005KT 01/M01 A3029 RMK A01 T00111007  RH  088%=      5-min Rain = 0
KCH1 101454Z 36005KT 01/M01 A3029 RMK A01 T00111009  RH  086%=      5-min Rain = 0
KCH1 101455Z 00005KT 01/M01 A3029 RMK A01 T00111011  RH  086%=      5-min Rain = 0
KCH1 101456Z 00005KT 01/M01 A3029 RMK A01 T00101011  RH  085%=      5-min Rain = 0
KCH1 101457Z 01006KT 01/M01 A3029 RMK A01 T00101013  RH  084%=      5-min Rain = 0
KCH1 101458Z 01006KT 01/M02 A3029 RMK A01 T00101015  RH  083%=      5-min Rain = 0
KCH1 101459Z 01005KT 01/M02 A3029 RMK A01 T00101015  RH  083%=      5-min Rain = 0
KCH1 101500Z 35005KT 01/M01 A3029 RMK A01 T00111013  RH  084%=      5-min Rain = 0
KCH1 101501Z 36007KT 01/M01 A3029 RMK A01 T00101013  RH  085%=      5-min Rain = 0
KCH1 101502Z 00007KT 01/M02 A3029 RMK A01 T00101017  RH  082%=      5-min Rain = 0
KCH1 101503Z 35006KT 01/M02 A3029 RMK A01 T00101019  RH  081%=      5-min Rain = 0
KCH1 101504Z 01006KT 01/M02 A3029 RMK A01 T00101019  RH  081%=      5-min Rain = 0
KCH1 101505Z 36007KT 01/M02 A3029 RMK A01 T00111019  RH  081%=      5-min Rain = 0
KCH1 101506Z 36006KT 01/M02 A3029 RMK A01 T00101019  RH  081%=      5-min Rain = 0
KCH1 101507Z 00006KT 01/M02 A3029 RMK A01 T00111019  RH  081%=      5-min Rain = 0
KCH1 101508Z 01006KT 01/M02 A3029 RMK A01 T00101019  RH  081%=      5-min Rain = 0
KCH1 101509Z 01004KT 01/M02 A3029 RMK A01 T00101019  RH  081%=      5-min Rain = 0
KCH1 101510Z 01003KT 01/M02 A3029 RMK A01 T00101015  RH  083%=      5-min Rain = 0
KCH1 101511Z 00004KT 01/M01 A303 RMK A01 T00101013  RH  085%=      5-min Rain = 0
KCH1 101512Z 01005KT 01/M02 A303 RMK A01 T00101016  RH  083%=      5-min Rain = 0
KCH1 101513Z 01004KT 01/M02 A303 RMK A01 T00101019  RH  081%=      5-min Rain = 0
KCH1 101514Z 36003KT 01/M02 A303 RMK A01 T00101020  RH  080%=      5-min Rain = 0
KCH1 101515Z 00005KT 01/M02 A303 RMK A01 T00111019  RH  081%=      5-min Rain = 0
KCH1 101516Z 00005KT 01/M02 A303 RMK A01 T00111021  RH  079%=      5-min Rain = 0
KCH1 101517Z 01004KT 01/M02 A303 RMK A01 T00111023  RH  078%=      5-min Rain = 0
KCH1 101518Z 01005KT 01/M02 A303 RMK A01 T00111023  RH  078%=      5-min Rain = 0
KCH1 101519Z 36005KT 01/M02 A303 RMK A01 T00111023  RH  078%=      5-min Rain = 0
KCH1 101520Z 36005KT 01/M02 A3031 RMK A01 T00111023  RH  078%=      5-min Rain = 0
KCH1 101521Z 36005KT 01/M02 A3031 RMK A01 T00111023  RH  078%=      5-min Rain = 0
KCH1 101522Z 01004KT 01/M02 A3031 RMK A01 T00111021  RH  079%=      5-min Rain = 0
KCH1 101523Z 00003KT 01/M02 A3031 RMK A01 T00111023  RH  078%=      5-min Rain = 0
KCH1 101524Z 01004KT 01/M02 A3031 RMK A01 T00111024  RH  078%=      5-min Rain = 0
KCH1 101525Z 02004KT 01/M02 A3031 RMK A01 T00121021  RH  079%=      5-min Rain = 0
KCH1 101526Z 02004KT 01/M02 A3031 RMK A01 T00121019  RH  080%=      5-min Rain = 0
KCH1 101527Z 01005KT 01/M02 A3031 RMK A01 T00121021  RH  078%=      5-min Rain = 0
KCH1 101528Z 01005KT 01/M03 A3032 RMK A01 T00121025  RH  076%=      5-min Rain = 0
KCH1 101529Z 01004KT 01/M03 A3032 RMK A01 T00121027  RH  075%=      5-min Rain = 0
KCH1 101530Z 00002KT 01/M02 A3032 RMK A01 T00131022  RH  078%=      5-min Rain = 0
KCH1 101531Z 35001KT 01/M02 A3032 RMK A01 T00131020  RH  079%=      5-min Rain = 0
KCH1 101532Z 35002KT 01/M02 A3033 RMK A01 T00131022  RH  078%=      5-min Rain = 0
KCH1 101533Z 36001KT 01/M02 A3033 RMK A01 T00131023  RH  077%=      5-min Rain = 0
KCH1 101534Z 34002KT 01/M02 A3033 RMK A01 T00131022  RH  078%=      5-min Rain = 0
KCH1 101535Z 36002KT 01/M02 A3033 RMK A01 T00131022  RH  078%=      5-min Rain = 0
KCH1 101536Z 02001KT 01/M03 A3033 RMK A01 T00131026  RH  075%=      5-min Rain = 0
KCH1 101537Z 00001KT 01/M03 A3033 RMK A01 T00131027  RH  075%=      5-min Rain = 0
KCH1 101538Z 00001KT 01/M02 A3033 RMK A01 T00141022  RH  077%=      5-min Rain = 0
KCH1 101539Z 01002KT 01/M02 A3033 RMK A01 T00141021  RH  078%=      5-min Rain = 0
KCH1 101540Z 01003KT 01/M02 A3032 RMK A01 T00141021  RH  078%=      5-min Rain = 0
KCH1 101541Z 02004KT 01/M02 A3032 RMK A01 T00141020  RH  079%=      5-min Rain = 0
KCH1 101542Z 02004KT 01/M02 A3032 RMK A01 T00141017  RH  080%=      5-min Rain = 0
KCH1 101543Z 01004KT 01/M02 A3032 RMK A01 T00141015  RH  081%=      5-min Rain = 0
KCH1 101544Z 02004KT 01/M02 A3032 RMK A01 T00141019  RH  079%=      5-min Rain = 0
KCH1 101545Z 36003KT 01/M02 A3033 RMK A01 T00141021  RH  077%=      5-min Rain = 0
KCH1 101546Z 36003KT 01/M02 A3033 RMK A01 T00141019  RH  078%=      5-min Rain = 0
KCH1 101547Z 35002KT 01/M02 A3033 RMK A01 T00141018  RH  079%=      5-min Rain = 0
KCH1 101548Z 35002KT 02/M02 A3033 RMK A01 T00151016  RH  080%=      5-min Rain = 0
KCH1 101549Z 35002KT 02/M01 A3033 RMK A01 T00151014  RH  081%=      5-min Rain = 0
KCH1 101550Z 01002KT 02/M01 A3033 RMK A01 T00161012  RH  082%=      5-min Rain = 0
KCH1 101551Z 02002KT 02/M01 A3032 RMK A01 T00161010  RH  083%=      5-min Rain = 0
KCH1 101552Z 02002KT 02/M01 A3032 RMK A01 T00161009  RH  083%=      5-min Rain = 0
KCH1 101553Z 01001KT 02/M01 A3032 RMK A01 T00171007  RH  084%=      5-min Rain = 0
KCH1 101554Z 01002KT 02/M01 A3032 RMK A01 T00171007  RH  084%=      5-min Rain = 0
KCH1 101555Z 36003KT 02/M01 A3032 RMK A01 T00181005  RH  085%=      5-min Rain = 0
KCH1 101556Z 00003KT 02/M01 A3032 RMK A01 T00191007  RH  083%=      5-min Rain = 0
KCH1 101557Z 00004KT 02/M01 A3032 RMK A01 T00191010  RH  082%=      5-min Rain = 0
KCH1 101558Z 00004KT 02/M01 A3032 RMK A01 T00181012  RH  080%=      5-min Rain = 0
KCH1 101559Z 00005KT 02/M02 A3032 RMK A01 T00181015  RH  079%=      5-min Rain = 0
KCH1 101600Z 36004KT 02/M01 A3032 RMK A01 T00181014  RH  079%=      5-min Rain = 0
KCH1 101601Z 36005KT 02/M01 A3032 RMK A01 T00181013  RH  080%=      5-min Rain = 0
KCH1 101602Z 36006KT 02/M02 A3032 RMK A01 T00191020  RH  076%=      5-min Rain = 0
KCH1 101603Z 00005KT 02/M02 A3032 RMK A01 T00181023  RH  074%=      5-min Rain = 0
KCH1 101604Z 00004KT 02/M02 A3032 RMK A01 T00181023  RH  074%=      5-min Rain = 0
KCH1 101605Z 36005KT 02/M02 A3033 RMK A01 T00181023  RH  074%=      5-min Rain = 0
KCH1 101606Z 35004KT 02/M03 A3033 RMK A01 T00181026  RH  073%=      5-min Rain = 0
KCH1 101607Z 34004KT 02/M02 A3033 RMK A01 T00181022  RH  075%=      5-min Rain = 0
KCH1 101608Z 35004KT 02/M02 A3034 RMK A01 T00181021  RH  075%=      5-min Rain = 0
KCH1 101609Z 35005KT 02/M02 A3034 RMK A01 T00181024  RH  074%=      5-min Rain = 0
KCH1 101610Z 35005KT 02/M03 A3034 RMK A01 T00181026  RH  073%=      5-min Rain = 0
KCH1 101611Z 35005KT 02/M03 A3034 RMK A01 T00181029  RH  071%=      5-min Rain = 0
KCH1 101612Z 00004KT 02/M02 A3033 RMK A01 T00181024  RH  074%=      5-min Rain = 0
KCH1 101613Z 01006KT 02/M02 A3033 RMK A01 T00181018  RH  077%=      5-min Rain = 0
KCH1 101614Z 01006KT 02/M02 A3033 RMK A01 T00181022  RH  074%=      5-min Rain = 0
KCH1 101615Z 02005KT 02/M02 A3033 RMK A01 T00191023  RH  074%=      5-min Rain = 0
KCH1 101616Z 00004KT 02/M02 A3033 RMK A01 T00191023  RH  074%=      5-min Rain = 0
KCH1 101617Z 02002KT 02/M02 A3033 RMK A01 T00191021  RH  074%=      5-min Rain = 0
KCH1 101618Z 03002KT 02/M02 A3033 RMK A01 T00211016  RH  076%=      5-min Rain = 0
KCH1 101619Z 02003KT 02/M02 A3033 RMK A01 T00211017  RH  076%=      5-min Rain = 0
KCH1 101620Z 02003KT 02/M02 A3033 RMK A01 T00221017  RH  075%=      5-min Rain = 0
KCH1 101621Z 02004KT 02/M02 A3033 RMK A01 T00221021  RH  073%=      5-min Rain = 0
KCH1 101622Z 03004KT 02/M02 A3033 RMK A01 T00221023  RH  072%=      5-min Rain = 0
KCH1 101623Z 02004KT 02/M02 A3033 RMK A01 T00231021  RH  073%=      5-min Rain = 0
KCH1 101624Z 02004KT 02/M02 A3033 RMK A01 T00231020  RH  073%=      5-min Rain = 0
KCH1 101625Z 03003KT 02/M02 A3033 RMK A01 T00241019  RH  073%=      5-min Rain = 0
KCH1 101626Z 05005KT 02/M02 A3033 RMK A01 T00241022  RH  071%=      5-min Rain = 0
KCH1 101627Z 05003KT 02/M03 A3033 RMK A01 T00241029  RH  068%=      5-min Rain = 0
KCH1 101628Z 04002KT 02/M03 A3033 RMK A01 T00231025  RH  070%=      5-min Rain = 0
KCH1 101629Z 03002KT 02/M02 A3033 RMK A01 T00231024  RH  071%=      5-min Rain = 0
KCH1 101630Z 03003KT 02/M02 A3033 RMK A01 T00241023  RH  071%=      5-min Rain = 0
KCH1 101631Z 02003KT 02/M03 A3033 RMK A01 T00241026  RH  070%=      5-min Rain = 0
KCH1 101632Z 36003KT 02/M03 A3033 RMK A01 T00241027  RH  069%=      5-min Rain = 0
KCH1 101633Z 35003KT 03/M02 A3033 RMK A01 T00251022  RH  071%=      5-min Rain = 0
KCH1 101634Z 35003KT 03/M02 A3033 RMK A01 T00251024  RH  070%=      5-min Rain = 0
KCH1 101635Z 00004KT 03/M02 A3033 RMK A01 T00251022  RH  071%=      5-min Rain = 0
KCH1 101636Z 01004KT 03/M02 A3033 RMK A01 T00251021  RH  071%=      5-min Rain = 0
KCH1 101637Z 00003KT 03/M02 A3034 RMK A01 T00261019  RH  072%=      5-min Rain = 0
KCH1 101638Z 01003KT 03/M02 A3034 RMK A01 T00261023  RH  070%=      5-min Rain = 0
KCH1 101639Z 36004KT 03/M02 A3034 RMK A01 T00261021  RH  071%=      5-min Rain = 0
KCH1 101640Z 35004KT 03/M02 A3034 RMK A01 T00271023  RH  070%=      5-min Rain = 0
KCH1 101641Z 35005KT 03/M03 A3035 RMK A01 T00271028  RH  067%=      5-min Rain = 0
KCH1 101642Z 36004KT 03/M03 A3035 RMK A01 T00261029  RH  067%=      5-min Rain = 0
KCH1 101643Z 00004KT 03/M03 A3035 RMK A01 T00261029  RH  067%=      5-min Rain = 0
KCH1 101644Z 35005KT 03/M03 A3035 RMK A01 T00261029  RH  067%=      5-min Rain = 0
KCH1 101645Z 35005KT 03/M03 A3034 RMK A01 T00261030  RH  067%=      5-min Rain = 0
KCH1 101646Z 36006KT 03/M03 A3034 RMK A01 T00251028  RH  068%=      5-min Rain = 0
KCH1 101647Z 36006KT 03/M03 A3034 RMK A01 T00251031  RH  066%=      5-min Rain = 0
KCH1 101648Z 01005KT 03/M03 A3034 RMK A01 T00251028  RH  068%=      5-min Rain = 0
KCH1 101649Z 35004KT 03/M02 A3034 RMK A01 T00271024  RH  069%=      5-min Rain = 0
KCH1 101650Z 00003KT 03/M03 A3034 RMK A01 T00271026  RH  068%=      5-min Rain = 0
KCH1 101651Z 01002KT 03/M03 A3035 RMK A01 T00281027  RH  067%=      5-min Rain = 0
KCH1 101652Z 01006KT 03/M02 A3035 RMK A01 T00291024  RH  068%=      5-min Rain = 0
KCH1 101653Z 02005KT 03/M03 A3034 RMK A01 T00301026  RH  066%=      5-min Rain = 0
KCH1 101654Z 03004KT 03/M03 A3034 RMK A01 T00301025  RH  067%=      5-min Rain = 0
KCH1 101655Z 02004KT 03/M02 A3034 RMK A01 T00311023  RH  067%=      5-min Rain = 0
KCH1 101656Z 00005KT 03/M02 A3034 RMK A01 T00321023  RH  067%=      5-min Rain = 0
KCH1 101657Z 02006KT 03/M03 A3034 RMK A01 T00321027  RH  065%=      5-min Rain = 0
KCH1 101658Z 02005KT 03/M03 A3034 RMK A01 T00321030  RH  064%=      5-min Rain = 0
KCH1 101659Z 05006KT 03/M03 A3034 RMK A01 T00321030  RH  064%=      5-min Rain = 0
KCH1 101700Z 04008KT 03/M03 A3033 RMK A01 T00321029  RH  064%=      5-min Rain = 0
KCH1 101701Z 04007KT 03/M03 A3033 RMK A01 T00321031  RH  063%=      5-min Rain = 0
KCH1 101702Z 04006KT 03/M03 A3034 RMK A01 T00321026  RH  066%=      5-min Rain = 0
KCH1 101703Z 03008KT 03/M03 A3034 RMK A01 T00331029  RH  064%=      5-min Rain = 0
KCH1 101704Z 03006KT 03/M03 A3034 RMK A01 T00321031  RH  063%=      5-min Rain = 0
KCH1 101705Z 03004KT 03/M03 A3034 RMK A01 T00321033  RH  062%=      5-min Rain = 0
KCH1 101706Z 04003KT 03/M04 A3034 RMK A01 T00321035  RH  061%=      5-min Rain = 0
KCH1 101707Z 05006KT 03/M03 A3034 RMK A01 T00321030  RH  064%=      5-min Rain = 0
KCH1 101708Z 03005KT 03/M03 A3034 RMK A01 T00321028  RH  065%=      5-min Rain = 0
KCH1 101709Z 04006KT 03/M03 A3034 RMK A01 T00321027  RH  065%=      5-min Rain = 0
KCH1 101710Z 05006KT 03/M03 A3034 RMK A01 T00321031  RH  063%=      5-min Rain = 0
KCH1 101711Z 04004KT 03/M03 A3034 RMK A01 T00311031  RH  064%=      5-min Rain = 0
KCH1 101712Z 01004KT 03/M03 A3034 RMK A01 T00311031  RH  064%=      5-min Rain = 0
KCH1 101713Z 34002KT 03/M04 A3034 RMK A01 T00311036  RH  061%=      5-min Rain = 0
KCH1 101714Z 35002KT 03/M04 A3034 RMK A01 T00301036  RH  062%=      5-min Rain = 0
KCH1 101715Z 01002KT 03/M04 A3034 RMK A01 T00301036  RH  062%=      5-min Rain = 0
KCH1 101716Z 34002KT 03/M03 A3034 RMK A01 T00311029  RH  065%=      5-min Rain = 0
KCH1 101717Z 01003KT 03/M03 A3034 RMK A01 T00311027  RH  065%=      5-min Rain = 0
KCH1 101718Z 02004KT 03/M03 A3034 RMK A01 T00321027  RH  065%=      5-min Rain = 0
KCH1 101719Z 02003KT 03/M02 A3034 RMK A01 T00321024  RH  067%=      5-min Rain = 0
KCH1 101720Z 35002KT 03/M02 A3035 RMK A01 T00331024  RH  066%=      5-min Rain = 0
KCH1 101721Z 01002KT 03/M02 A3035 RMK A01 T00341021  RH  067%=      5-min Rain = 0
KCH1 101722Z 00004KT 04/M03 A3035 RMK A01 T00351027  RH  064%=      5-min Rain = 0
KCH1 101723Z 36003KT 04/M04 A3035 RMK A01 T00351038  RH  059%=      5-min Rain = 0
KCH1 101724Z 02002KT 03/M04 A3035 RMK A01 T00341038  RH  059%=      5-min Rain = 0
KCH1 101725Z 01003KT 04/M03 A3035 RMK A01 T00351034  RH  061%=      5-min Rain = 0
KCH1 101726Z 00004KT 04/M03 A3035 RMK A01 T00361033  RH  060%=      5-min Rain = 0
KCH1 101727Z 00006KT 04/M03 A3035 RMK A01 T00371032  RH  061%=      5-min Rain = 0
KCH1 101728Z 36005KT 04/M03 A3035 RMK A01 T00371031  RH  061%=      5-min Rain = 0
KCH1 101729Z 00006KT 04/M03 A3035 RMK A01 T00361027  RH  063%=      5-min Rain = 0
KCH1 101730Z 01007KT 04/M02 A3035 RMK A01 T00381022  RH  065%=      5-min Rain = 0
KCH1 101731Z 03006KT 04/M03 A3035 RMK A01 T00371034  RH  060%=      5-min Rain = 0
KCH1 101732Z 02007KT 04/M03 A3034 RMK A01 T00361032  RH  061%=      5-min Rain = 0
KCH1 101733Z 04006KT 04/M04 A3034 RMK A01 T00351036  RH  060%=      5-min Rain = 0
KCH1 101734Z 04007KT 04/M03 A3034 RMK A01 T00351032  RH  062%=      5-min Rain = 0
KCH1 101735Z 04007KT 04/M03 A3034 RMK A01 T00351032  RH  062%=      5-min Rain = 0
KCH1 101736Z 03006KT 03/M03 A3034 RMK A01 T00341030  RH  063%=      5-min Rain = 0
KCH1 101737Z 01006KT 04/M03 A3034 RMK A01 T00351027  RH  064%=      5-min Rain = 0
KCH1 101738Z 02006KT 04/M03 A3034 RMK A01 T00351028  RH  063%=      5-min Rain = 0
KCH1 101739Z 01006KT 04/M03 A3034 RMK A01 T00351030  RH  062%=      5-min Rain = 0
KCH1 101740Z 00006KT 04/M03 A3034 RMK A01 T00371025  RH  064%=      5-min Rain = 0
KCH1 101741Z 36004KT 04/M03 A3034 RMK A01 T00381029  RH  062%=      5-min Rain = 0
KCH1 101742Z 35006KT 04/M02 A3034 RMK A01 T00411022  RH  064%=      5-min Rain = 0
KCH1 101743Z 35007KT 04/M02 A3034 RMK A01 T00421022  RH  063%=      5-min Rain = 0
KCH1 101744Z 01004KT 04/M02 A3034 RMK A01 T00441021  RH  063%=      5-min Rain = 0
KCH1 101745Z 00006KT 05/M02 A3034 RMK A01 T00451021  RH  062%=      5-min Rain = 0
KCH1 101746Z 35007KT 04/M03 A3033 RMK A01 T00441032  RH  058%=      5-min Rain = 0
KCH1 101747Z 00007KT 04/M03 A3033 RMK A01 T00431033  RH  058%=      5-min Rain = 0
KCH1 101748Z 35005KT 04/M03 A3033 RMK A01 T00431033  RH  058%=      5-min Rain = 0
KCH1 101749Z 02005KT 04/M03 A3033 RMK A01 T00431032  RH  058%=      5-min Rain = 0
KCH1 101750Z 04005KT 04/M03 A3033 RMK A01 T00431030  RH  059%=      5-min Rain = 0
KCH1 101751Z 02003KT 04/M03 A3033 RMK A01 T00431028  RH  060%=      5-min Rain = 0
KCH1 101752Z 01006KT 05/M02 A3033 RMK A01 T00451024  RH  061%=      5-min Rain = 0
KCH1 101753Z 03004KT 05/M03 A3033 RMK A01 T00461025  RH  060%=      5-min Rain = 0
KCH1 101754Z 02004KT 05/M02 A3033 RMK A01 T00481023  RH  060%=      5-min Rain = 0
KCH1 101755Z 03003KT 05/M02 A3033 RMK A01 T00501022  RH  060%=      5-min Rain = 0
KCH1 101756Z 02004KT 05/M03 A3033 RMK A01 T00511026  RH  057%=      5-min Rain = 0
KCH1 101757Z 05005KT 05/M02 A3033 RMK A01 T00521022  RH  059%=      5-min Rain = 0
KCH1 101758Z 04004KT 05/M02 A3033 RMK A01 T00521020  RH  060%=      5-min Rain = 0
KCH1 101759Z 05005KT 06/M02 A3033 RMK A01 T00551016  RH  060%=      5-min Rain = 0
KCH1 101800Z 02004KT 06/M02 A3033 RMK A01 T00551022  RH  057%=      5-min Rain = 0
KCH1 101801Z 05006KT 05/M03 A3033 RMK A01 T00521030  RH  055%=      5-min Rain = 0
KCH1 101802Z 04004KT 05/M03 A3033 RMK A01 T00501030  RH  056%=      5-min Rain = 0
KCH1 101803Z 05005KT 05/M03 A3033 RMK A01 T00501028  RH  057%=      5-min Rain = 0
KCH1 101804Z 05006KT 05/M03 A3033 RMK A01 T00521028  RH  056%=      5-min Rain = 0
KCH1 101805Z 04006KT 05/M03 A3033 RMK A01 T00521032  RH  055%=      5-min Rain = 0
KCH1 101806Z 03004KT 05/M04 A3033 RMK A01 T00521035  RH  054%=      5-min Rain = 0
KCH1 101807Z 06007KT 05/M04 A3033 RMK A01 T00521038  RH  052%=      5-min Rain = 0
KCH1 101808Z 05006KT 05/M03 A3033 RMK A01 T00521032  RH  055%=      5-min Rain = 0
KCH1 101809Z 05006KT 05/M04 A3032 RMK A01 T00541035  RH  053%=      5-min Rain = 0
KCH1 101810Z 05006KT 05/M03 A3032 RMK A01 T00531032  RH  054%=      5-min Rain = 0
KCH1 101811Z 05006KT 05/M03 A3032 RMK A01 T00541033  RH  053%=      5-min Rain = 0
KCH1 101812Z 05008KT 05/M03 A3032 RMK A01 T00541033  RH  053%=      5-min Rain = 0
KCH1 101813Z 04007KT 05/M03 A3032 RMK A01 T00531034  RH  053%=      5-min Rain = 0
KCH1 101814Z 02006KT 05/M03 A3032 RMK A01 T00541029  RH  055%=      5-min Rain = 0
KCH1 101815Z 36005KT 06/M03 A3032 RMK A01 T00551033  RH  053%=      5-min Rain = 0
KCH1 101816Z 01004KT 05/M04 A3032 RMK A01 T00521042  RH  051%=      5-min Rain = 0
KCH1 101817Z 35006KT 05/M04 A3032 RMK A01 T00511038  RH  053%=      5-min Rain = 0
KCH1 101818Z 34005KT 05/M04 A3032 RMK A01 T00521038  RH  052%=      5-min Rain = 0
KCH1 101819Z 34004KT 05/M04 A3032 RMK A01 T00531039  RH  052%=      5-min Rain = 0
KCH1 101820Z 36003KT 05/M04 A3032 RMK A01 T00531040  RH  051%=      5-min Rain = 0
KCH1 101821Z 00003KT 06/M04 A3032 RMK A01 T00551040  RH  051%=      5-min Rain = 0
KCH1 101822Z 05005KT 06/M04 A3032 RMK A01 T00551040  RH  050%=      5-min Rain = 0
KCH1 101823Z 07005KT 06/M04 A3032 RMK A01 T00551041  RH  050%=      5-min Rain = 0
KCH1 101824Z 05005KT 06/M04 A3032 RMK A01 T00551039  RH  051%=      5-min Rain = 0
KCH1 101825Z 04007KT 06/M04 A3032 RMK A01 T00561035  RH  052%=      5-min Rain = 0
KCH1 101826Z 06006KT 06/M04 A3032 RMK A01 T00571042  RH  049%=      5-min Rain = 0
KCH1 101827Z 07005KT 06/M05 A3032 RMK A01 T00551046  RH  048%=      5-min Rain = 0
KCH1 101828Z 07006KT 05/M04 A3032 RMK A01 T00541043  RH  050%=      5-min Rain = 0
KCH1 101829Z 08004KT 05/M05 A3032 RMK A01 T00531045  RH  049%=      5-min Rain = 0
KCH1 101830Z 08003KT 05/M04 A3032 RMK A01 T00521044  RH  050%=      5-min Rain = 0
KCH1 101831Z 05006KT 05/M04 A3032 RMK A01 T00541042  RH  050%=      5-min Rain = 0
KCH1 101832Z 05006KT 05/M04 A3032 RMK A01 T00541042  RH  050%=      5-min Rain = 0
KCH1 101833Z 06006KT 06/M04 A3032 RMK A01 T00561039  RH  050%=      5-min Rain = 0
KCH1 101834Z 05006KT 06/M04 A3031 RMK A01 T00581036  RH  051%=      5-min Rain = 0
KCH1 101835Z 03003KT 06/M03 A3031 RMK A01 T00601032  RH  051%=      5-min Rain = 0
KCH1 101836Z 01003KT 06/M03 A3031 RMK A01 T00631032  RH  051%=      5-min Rain = 0
KCH1 101837Z 02002KT 06/M04 A3031 RMK A01 T00631040  RH  047%=      5-min Rain = 0
KCH1 101838Z 03004KT 06/M04 A3031 RMK A01 T00621041  RH  048%=      5-min Rain = 0
KCH1 101839Z 02003KT 06/M04 A3031 RMK A01 T00621043  RH  047%=      5-min Rain = 0
KCH1 101840Z 06004KT 06/M05 A3031 RMK A01 T00621045  RH  046%=      5-min Rain = 0
KCH1 101841Z 06005KT 06/M06 A3031 RMK A01 T00611060  RH  042%=      5-min Rain = 0
KCH1 101842Z 09006KT 06/M05 A3031 RMK A01 T00601053  RH  044%=      5-min Rain = 0
KCH1 101843Z 10005KT 06/M06 A303 RMK A01 T00611056  RH  043%=      5-min Rain = 0
KCH1 101844Z 08004KT 06/M05 A3031 RMK A01 T00611050  RH  045%=      5-min Rain = 0
KCH1 101845Z 09003KT 06/M04 A303 RMK A01 T00641038  RH  048%=      5-min Rain = 0
KCH1 101846Z 10005KT 07/M04 A303 RMK A01 T00671042  RH  046%=      5-min Rain = 0
KCH1 101847Z 11005KT 07/M05 A303 RMK A01 T00661047  RH  044%=      5-min Rain = 0
KCH1 101848Z 12004KT 06/M05 A303 RMK A01 T00641049  RH  044%=      5-min Rain = 0
KCH1 101849Z 13003KT 06/M05 A303 RMK A01 T00621051  RH  044%=      5-min Rain = 0
KCH1 101850Z 09002KT 06/M05 A303 RMK A01 T00611045  RH  047%=      5-min Rain = 0
KCH1 101851Z 07004KT 06/M04 A303 RMK A01 T00631043  RH  047%=      5-min Rain = 0
KCH1 101852Z 07006KT 06/M05 A303 RMK A01 T00631045  RH  046%=      5-min Rain = 0
KCH1 101853Z 04005KT 06/M05 A303 RMK A01 T00631050  RH  044%=      5-min Rain = 0
KCH1 101854Z 05005KT 06/M05 A303 RMK A01 T00641045  RH  046%=      5-min Rain = 0
KCH1 101855Z 05008KT 07/M04 A303 RMK A01 T00661041  RH  046%=      5-min Rain = 0
KCH1 101856Z 06006KT 07/M05 A303 RMK A01 T00651046  RH  045%=      5-min Rain = 0
KCH1 101857Z 05004KT 06/M04 A303 RMK A01 T00621044  RH  047%=      5-min Rain = 0
KCH1 101858Z 03004KT 07/M03 A303 RMK A01 T00661033  RH  049%=      5-min Rain = 0
KCH1 101859Z 06004KT 07/M04 A303 RMK A01 T00691036  RH  047%=      5-min Rain = 0
KCH1 101900Z 10003KT 07/M04 A303 RMK A01 T00691039  RH  046%=      5-min Rain = 0
KCH1 101901Z 12003KT 07/M04 A303 RMK A01 T00691044  RH  044%=      5-min Rain = 0
KCH1 101902Z 09005KT 07/M04 A303 RMK A01 T00691040  RH  046%=      5-min Rain = 0
KCH1 101903Z 07008KT 07/M05 A303 RMK A01 T00701046  RH  043%=      5-min Rain = 0
KCH1 101904Z 07007KT 07/M05 A303 RMK A01 T00691047  RH  043%=      5-min Rain = 0
KCH1 101905Z 07005KT 07/M05 A303 RMK A01 T00661053  RH  042%=      5-min Rain = 0
KCH1 101906Z 08006KT 07/M05 A303 RMK A01 T00651049  RH  044%=      5-min Rain = 0
KCH1 101907Z 10006KT 07/M05 A3029 RMK A01 T00651046  RH  045%=      5-min Rain = 0
KCH1 101908Z 09004KT 07/M05 A3029 RMK A01 T00661045  RH  045%=      5-min Rain = 0
KCH1 101909Z 11005KT 07/M04 A3029 RMK A01 T00671041  RH  046%=      5-min Rain = 0
KCH1 101910Z 12005KT 07/M04 A3029 RMK A01 T00681044  RH  045%=      5-min Rain = 0
KCH1 101911Z 11005KT 07/M05 A3029 RMK A01 T00661045  RH  045%=      5-min Rain = 0
KCH1 101912Z 12005KT 07/M04 A3029 RMK A01 T00661044  RH  045%=      5-min Rain = 0
KCH1 101913Z 10006KT 07/M03 A3029 RMK A01 T00681034  RH  048%=      5-min Rain = 0
KCH1 101914Z 09006KT 07/M03 A3029 RMK A01 T00691034  RH  048%=      5-min Rain = 0
KCH1 101915Z 10005KT 07/M03 A3029 RMK A01 T00701034  RH  048%=      5-min Rain = 0
KCH1 101916Z 10006KT 07/M03 A3029 RMK A01 T00711034  RH  047%=      5-min Rain = 0
KCH1 101917Z 09004KT 07/M04 A3029 RMK A01 T00711037  RH  046%=      5-min Rain = 0
KCH1 101918Z 09003KT 07/M04 A3029 RMK A01 T00701036  RH  047%=      5-min Rain = 0
KCH1 101919Z 11005KT 07/M04 A3029 RMK A01 T00691039  RH  046%=      5-min Rain = 0
KCH1 101920Z 12005KT 07/M04 A3029 RMK A01 T00681038  RH  047%=      5-min Rain = 0
KCH1 101921Z 14005KT 07/M04 A3029 RMK A01 T00671037  RH  047%=      5-min Rain = 0
KCH1 101922Z 13005KT 07/M04 A3029 RMK A01 T00671036  RH  048%=      5-min Rain = 0
KCH1 101923Z 12004KT 07/M03 A3029 RMK A01 T00691032  RH  048%=      5-min Rain = 0
KCH1 101924Z 09004KT 07/M03 A3029 RMK A01 T00721028  RH  049%=      5-min Rain = 0
KCH1 101925Z 08005KT 07/M03 A3029 RMK A01 T00741033  RH  047%=      5-min Rain = 0
KCH1 101926Z 08004KT 07/M04 A3029 RMK A01 T00721037  RH  046%=      5-min Rain = 0
KCH1 101927Z 05005KT 07/M03 A3029 RMK A01 T00721034  RH  047%=      5-min Rain = 0
KCH1 101928Z 04004KT 07/M04 A3029 RMK A01 T00711039  RH  045%=      5-min Rain = 0
KCH1 101929Z 06003KT 07/M04 A3029 RMK A01 T00691041  RH  045%=      5-min Rain = 0
KCH1 101930Z 05006KT 07/M04 A3029 RMK A01 T00681037  RH  047%=      5-min Rain = 0
KCH1 101931Z 05006KT 07/M03 A3029 RMK A01 T00711033  RH  048%=      5-min Rain = 0
KCH1 101932Z 06005KT 07/M03 A3029 RMK A01 T00721034  RH  047%=      5-min Rain = 0
KCH1 101933Z 06005KT 07/M04 A3029 RMK A01 T00721036  RH  046%=      5-min Rain = 0
KCH1 101934Z 09002KT 07/M04 A3029 RMK A01 T00711039  RH  046%=      5-min Rain = 0
KCH1 101935Z 12002KT 07/M04 A3029 RMK A01 T00701040  RH  045%=      5-min Rain = 0
KCH1 101936Z 11004KT 07/M04 A3029 RMK A01 T00701036  RH  047%=      5-min Rain = 0
KCH1 101937Z 06004KT 07/M03 A3029 RMK A01 T00741028  RH  048%=      5-min Rain = 0
KCH1 101938Z 11004KT 08/M03 A3029 RMK A01 T00771030  RH  046%=      5-min Rain = 0
KCH1 101939Z 11003KT 08/M03 A3029 RMK A01 T00771033  RH  046%=      5-min Rain = 0
KCH1 101940Z 08002KT 08/M04 A3029 RMK A01 T00771035  RH  045%=      5-min Rain = 0
KCH1 101941Z 07004KT 08/M04 A3029 RMK A01 T00751035  RH  046%=      5-min Rain = 0
KCH1 101942Z 06002G7KT 07/M03 A3029 RMK A01 T00731034  RH  047%=      5-min Rain = 0
KCH1 101943Z 05006KT 07/M03 A3029 RMK A01 T00731031  RH  048%=      5-min Rain = 0
KCH1 101944Z 05005KT 07/M03 A3029 RMK A01 T00731031  RH  048%=      5-min Rain = 0
KCH1 101945Z 04004KT 07/M03 A3029 RMK A01 T00721031  RH  048%=      5-min Rain = 0
KCH1 101946Z 06008KT 07/M03 A3029 RMK A01 T00721030  RH  048%=      5-min Rain = 0
KCH1 101947Z 06005KT 07/M03 A3029 RMK A01 T00711034  RH  047%=      5-min Rain = 0
KCH1 101948Z 07003KT 07/M03 A3029 RMK A01 T00691030  RH  049%=      5-min Rain = 0
KCH1 101949Z 09002KT 07/M03 A3029 RMK A01 T00691033  RH  048%=      5-min Rain = 0
KCH1 101950Z 02002KT 07/M03 A3029 RMK A01 T00691033  RH  048%=      5-min Rain = 0
KCH1 101951Z 36002KT 07/M03 A3029 RMK A01 T00691030  RH  049%=      5-min Rain = 0
KCH1 101952Z 34002KT 07/M03 A3029 RMK A01 T00691034  RH  048%=      5-min Rain = 0
KCH1 101953Z 31001KT 07/M04 A3029 RMK A01 T00681035  RH  048%=      5-min Rain = 0
KCH1 101954Z 28001KT 07/M03 A3029 RMK A01 T00671033  RH  049%=      5-min Rain = 0
KCH1 101955Z 28001KT 07/M03 A3029 RMK A01 T00681031  RH  049%=      5-min Rain = 0
KCH1 101956Z 06002KT 07/M03 A3029 RMK A01 T00701029  RH  049%=      5-min Rain = 0
KCH1 101957Z 08005KT 07/M02 A3029 RMK A01 T00741020  RH  051%=      5-min Rain = 0
KCH1 101958Z 08004KT 08/M02 A3029 RMK A01 T00761022  RH  050%=      5-min Rain = 0
KCH1 101959Z 09004KT 08/M03 A3029 RMK A01 T00761026  RH  048%=      5-min Rain = 0
KCH1 102000Z 09002KT 08/M03 A3029 RMK A01 T00751027  RH  049%=      5-min Rain = 0
KCH1 102001Z 04002KT 08/M02 A3029 RMK A01 T00761021  RH  050%=      5-min Rain = 0
KCH1 102002Z 06002KT 08/M03 A3029 RMK A01 T00771026  RH  048%=      5-min Rain = 0
KCH1 102003Z 09004KT 08/M02 A3029 RMK A01 T00771024  RH  049%=      5-min Rain = 0
KCH1 102004Z 09005KT 08/M03 A3029 RMK A01 T00781027  RH  047%=      5-min Rain = 0
KCH1 102005Z 08005KT 08/M03 A3029 RMK A01 T00781027  RH  047%=      5-min Rain = 0
KCH1 102006Z 06003KT 08/M03 A3029 RMK A01 T00761029  RH  047%=      5-min Rain = 0
KCH1 102007Z 09001KT 07/M03 A3029 RMK A01 T00731029  RH  048%=      5-min Rain = 0
KCH1 102008Z 11002KT 07/M02 A3029 RMK A01 T00731022  RH  051%=      5-min Rain = 0
KCH1 102009Z 08000KT 08/M02 A3029 RMK A01 T00761022  RH  050%=      5-min Rain = 0
KCH1 102010Z 03000KT 08/M02 A3029 RMK A01 T00781024  RH  049%=      5-min Rain = 0
KCH1 102011Z 11001KT 08/M02 A3029 RMK A01 T00801020  RH  049%=      5-min Rain = 0
KCH1 102012Z 10004KT 08/M01 A3029 RMK A01 T00841013  RH  051%=      5-min Rain = 0
KCH1 102013Z 11005KT 09/M01 A3029 RMK A01 T00871014  RH  049%=      5-min Rain = 0
KCH1 102014Z 12004KT 09/M02 A3029 RMK A01 T00851017  RH  049%=      5-min Rain = 0
KCH1 102015Z 13003KT 08/M02 A3029 RMK A01 T00831018  RH  049%=      5-min Rain = 0
KCH1 102016Z 07004KT 08/M02 A3029 RMK A01 T00821018  RH  049%=      5-min Rain = 0
KCH1 102017Z 09004KT 08/M02 A3029 RMK A01 T00821017  RH  049%=      5-min Rain = 0
KCH1 102018Z 10003KT 08/M02 A3029 RMK A01 T00811024  RH  047%=      5-min Rain = 0
KCH1 102019Z 11004KT 08/M02 A3029 RMK A01 T00791024  RH  048%=      5-min Rain = 0
KCH1 102020Z 08004KT 08/M02 A3029 RMK A01 T00791020  RH  050%=      5-min Rain = 0
KCH1 102021Z 09003KT 08/M03 A3029 RMK A01 T00781026  RH  048%=      5-min Rain = 0
KCH1 102022Z 13001KT 08/M03 A3029 RMK A01 T00761025  RH  049%=      5-min Rain = 0
KCH1 102023Z 06000KT 08/M02 A3029 RMK A01 T00761020  RH  051%=      5-min Rain = 0
KCH1 102024Z 08002KT 08/M02 A3029 RMK A01 T00771023  RH  049%=      5-min Rain = 0
KCH1 102025Z 15005KT 08/M02 A3029 RMK A01 T00781018  RH  050%=      5-min Rain = 0
KCH1 102026Z 15002KT 08/M02 A3029 RMK A01 T00791017  RH  051%=      5-min Rain = 0
KCH1 102027Z 13001KT 08/M02 A3029 RMK A01 T00811015  RH  051%=      5-min Rain = 0
KCH1 102028Z 11002KT 08/M01 A3029 RMK A01 T00821012  RH  051%=      5-min Rain = 0
KCH1 102029Z 12002KT 08/M02 A3029 RMK A01 T00831016  RH  050%=      5-min Rain = 0
KCH1 102030Z 17003KT 08/M02 A3029 RMK A01 T00821017  RH  050%=      5-min Rain = 0
KCH1 102031Z 14006KT 08/M02 A3029 RMK A01 T00801015  RH  051%=      5-min Rain = 0
KCH1 102032Z 14005KT 08/M01 A3029 RMK A01 T00801014  RH  051%=      5-min Rain = 0
KCH1 102033Z 14004KT 08/M02 A3029 RMK A01 T00781016  RH  051%=      5-min Rain = 0
KCH1 102034Z 15003KT 08/M01 A3029 RMK A01 T00771013  RH  053%=      5-min Rain = 0
KCH1 102035Z 16002KT 08/M02 A3029 RMK A01 T00771017  RH  052%=      5-min Rain = 0
KCH1 102036Z 14002KT 08/M01 A3029 RMK A01 T00771014  RH  053%=      5-min Rain = 0
KCH1 102037Z 14003KT 08/M01 A3029 RMK A01 T00771011  RH  054%=      5-min Rain = 0
KCH1 102038Z 13003KT 08/M01 A3029 RMK A01 T00771009  RH  054%=      5-min Rain = 0
KCH1 102039Z 14003KT 08/M01 A3029 RMK A01 T00781013  RH  053%=      5-min Rain = 0
KCH1 102040Z 13003KT 08/M01 A3029 RMK A01 T00781012  RH  053%=      5-min Rain = 0
KCH1 102041Z 10002KT 08/M01 A3029 RMK A01 T00771014  RH  052%=      5-min Rain = 0
KCH1 102042Z 07001KT 08/M02 A3029 RMK A01 T00761015  RH  052%=      5-min Rain = 0
KCH1 102043Z 07001KT 08/M01 A3029 RMK A01 T00751014  RH  053%=      5-min Rain = 0
KCH1 102044Z 07001KT 08/M02 A3029 RMK A01 T00751015  RH  053%=      5-min Rain = 0
KCH1 102045Z 10001KT 07/M02 A3029 RMK A01 T00741016  RH  053%=      5-min Rain = 0
KCH1 102046Z 00000KT 07/M01 A3029 RMK A01 T00741013  RH  054%=      5-min Rain = 0
KCH1 102047Z 09001KT 08/M01 A3029 RMK A01 T00751009  RH  055%=      5-min Rain = 0
KCH1 102048Z 10002KT 08/M02 A3029 RMK A01 T00751015  RH  053%=      5-min Rain = 0
KCH1 102049Z 10002KT 08/M02 A3029 RMK A01 T00751016  RH  053%=      5-min Rain = 0
KCH1 102050Z 07001KT 07/M02 A3029 RMK A01 T00741015  RH  053%=      5-min Rain = 0
KCH1 102051Z 06000KT 07/M02 A3029 RMK A01 T00731015  RH  053%=      5-min Rain = 0
KCH1 102052Z 05002KT 07/M01 A3029 RMK A01 T00731013  RH  054%=      5-min Rain = 0
KCH1 102053Z 07003KT 07/M02 A3029 RMK A01 T00731015  RH  054%=      5-min Rain = 0
KCH1 102054Z 12002KT 07/M02 A3029 RMK A01 T00721015  RH  054%=      5-min Rain = 0
KCH1 102055Z 12003KT 07/M01 A3029 RMK A01 T00731013  RH  055%=      5-min Rain = 0
KCH1 102056Z 10002KT 07/M01 A3029 RMK A01 T00731012  RH  055%=      5-min Rain = 0
KCH1 102057Z 08002KT 07/M01 A3029 RMK A01 T00731014  RH  054%=      5-min Rain = 0
KCH1 102058Z 04002KT 07/M01 A303 RMK A01 T00741013  RH  054%=      5-min Rain = 0
KCH1 102059Z 07004KT 07/M01 A303 RMK A01 T00741011  RH  055%=      5-min Rain = 0
KCH1 102100Z 09004KT 07/M01 A303 RMK A01 T00741010  RH  055%=      5-min Rain = 0
KCH1 102101Z 08003KT 07/M01 A303 RMK A01 T00741012  RH  054%=      5-min Rain = 0
KCH1 102102Z 07002KT 07/M02 A303 RMK A01 T00741015  RH  054%=      5-min Rain = 0
KCH1 102103Z 08001KT 07/M01 A303 RMK A01 T00731014  RH  054%=      5-min Rain = 0
KCH1 102104Z 08001KT 07/M01 A303 RMK A01 T00731012  RH  055%=      5-min Rain = 0
KCH1 102105Z 11001KT 07/M01 A303 RMK A01 T00741011  RH  055%=      5-min Rain = 0
KCH1 102106Z 10002KT 08/M01 A3029 RMK A01 T00751012  RH  054%=      5-min Rain = 0
KCH1 102107Z 12003KT 08/M01 A3029 RMK A01 T00751012  RH  054%=      5-min Rain = 0
KCH1 102108Z 13003KT 08/M01 A3029 RMK A01 T00761011  RH  054%=      5-min Rain = 0
KCH1 102109Z 11004KT 08/M01 A3029 RMK A01 T00791009  RH  054%=      5-min Rain = 0
KCH1 102110Z 11002KT 08/M01 A3029 RMK A01 T00801010  RH  053%=      5-min Rain = 0
KCH1 102111Z 11002KT 08/M01 A3029 RMK A01 T00821007  RH  053%=      5-min Rain = 0
KCH1 102112Z 10002KT 08/M01 A303 RMK A01 T00831011  RH  052%=      5-min Rain = 0
KCH1 102113Z 13000KT 08/M01 A303 RMK A01 T00831010  RH  052%=      5-min Rain = 0
KCH1 102114Z 04000KT 08/M01 A303 RMK A01 T00841006  RH  053%=      5-min Rain = 0
KCH1 102115Z 12002KT 09/M01 A303 RMK A01 T00861006  RH  052%=      5-min Rain = 0
KCH1 102116Z 13003KT 09/M01 A303 RMK A01 T00871005  RH  052%=      5-min Rain = 0
KCH1 102117Z 12002KT 09/M01 A303 RMK A01 T00881007  RH  051%=      5-min Rain = 0
KCH1 102118Z 18003KT 09/M01 A303 RMK A01 T00881006  RH  052%=      5-min Rain = 0
KCH1 102119Z 14003KT 09/M00 A303 RMK A01 T00891004  RH  052%=      5-min Rain = 0
KCH1 102120Z 14004KT 09/M00 A303 RMK A01 T00911004  RH  051%=      5-min Rain = 0
KCH1 102121Z 15005KT 09/M01 A303 RMK A01 T00891010  RH  050%=      5-min Rain = 0
KCH1 102122Z 16004KT 09/M01 A303 RMK A01 T00861009  RH  051%=      5-min Rain = 0
KCH1 102123Z 16003KT 09/M01 A303 RMK A01 T00851012  RH  051%=      5-min Rain = 0
KCH1 102124Z 16003KT 08/M01 A303 RMK A01 T00831011  RH  052%=      5-min Rain = 0
KCH1 102125Z 17004KT 08/M01 A303 RMK A01 T00821011  RH  052%=      5-min Rain = 0
KCH1 102126Z 17003KT 08/M01 A303 RMK A01 T00801012  RH  052%=      5-min Rain = 0
KCH1 102127Z 17003KT 08/M01 A303 RMK A01 T00801009  RH  053%=      5-min Rain = 0
KCH1 102128Z 16003KT 08/M01 A303 RMK A01 T00801012  RH  052%=      5-min Rain = 0
KCH1 102129Z 15002KT 08/M01 A303 RMK A01 T00801012  RH  052%=      5-min Rain = 0
KCH1 102130Z 12003KT 08/M01 A303 RMK A01 T00801009  RH  053%=      5-min Rain = 0
KCH1 102131Z 13003KT 08/M01 A303 RMK A01 T00801012  RH  052%=      5-min Rain = 0
KCH1 102132Z 12001KT 08/M01 A303 RMK A01 T00781012  RH  053%=      5-min Rain = 0
KCH1 102133Z 15003KT 08/M01 A303 RMK A01 T00781007  RH  055%=      5-min Rain = 0
KCH1 102134Z 16004KT 08/M01 A303 RMK A01 T00811007  RH  054%=      5-min Rain = 0
KCH1 102135Z 14002KT 08/M01 A303 RMK A01 T00821010  RH  052%=      5-min Rain = 0
KCH1 102136Z 12001KT 08/M01 A303 RMK A01 T00831010  RH  052%=      5-min Rain = 0
KCH1 102137Z 09001KT 08/M01 A303 RMK A01 T00821012  RH  052%=      5-min Rain = 0
KCH1 102138Z 12001KT 08/M01 A303 RMK A01 T00811011  RH  052%=      5-min Rain = 0
KCH1 102139Z 12003KT 08/M01 A303 RMK A01 T00811009  RH  053%=      5-min Rain = 0
KCH1 102140Z 13003KT 08/M01 A303 RMK A01 T00811010  RH  053%=      5-min Rain = 0
KCH1 102141Z 12001KT 08/M01 A303 RMK A01 T00811010  RH  053%=      5-min Rain = 0
KCH1 102142Z 12004KT 08/M01 A303 RMK A01 T00811009  RH  053%=      5-min Rain = 0
KCH1 102143Z 13004KT 08/M01 A303 RMK A01 T00821009  RH  053%=      5-min Rain = 0
KCH1 102144Z 14003KT 08/M01 A303 RMK A01 T00811009  RH  053%=      5-min Rain = 0
KCH1 102145Z 16002KT 08/M01 A303 RMK A01 T00811010  RH  053%=      5-min Rain = 0
KCH1 102146Z 16001KT 08/M01 A303 RMK A01 T00811008  RH  053%=      5-min Rain = 0
KCH1 102147Z 15002KT 08/M01 A303 RMK A01 T00831006  RH  053%=      5-min Rain = 0
KCH1 102148Z 15001KT 09/M01 A303 RMK A01 T00851008  RH  052%=      5-min Rain = 0
KCH1 102149Z 17003KT 09/M01 A303 RMK A01 T00851007  RH  052%=      5-min Rain = 0
KCH1 102150Z 20004KT 09/M01 A303 RMK A01 T00861005  RH  053%=      5-min Rain = 0
KCH1 102151Z 21003KT 09/M01 A3031 RMK A01 T00871005  RH  053%=      5-min Rain = 0
KCH1 102152Z 22003KT 09/M01 A3031 RMK A01 T00861005  RH  053%=      5-min Rain = 0
KCH1 102153Z 20003KT 09/M00 A303 RMK A01 T00861004  RH  053%=      5-min Rain = 0
KCH1 102154Z 18003KT 09/M01 A303 RMK A01 T00861005  RH  053%=      5-min Rain = 0
KCH1 102155Z 19003KT 09/M01 A303 RMK A01 T00851005  RH  053%=      5-min Rain = 0
KCH1 102156Z 21002KT 09/M01 A303 RMK A01 T00861006  RH  052%=      5-min Rain = 0
KCH1 102157Z 18002KT 09/M00 A3031 RMK A01 T00871004  RH  053%=      5-min Rain = 0
KCH1 102158Z 13002KT 09/M01 A3031 RMK A01 T00881006  RH  052%=      5-min Rain = 0
KCH1 102159Z 12004KT 09/M01 A3031 RMK A01 T00881005  RH  052%=      5-min Rain = 0
KCH1 102200Z 13004KT 09/M00 A3031 RMK A01 T00881003  RH  053%=      5-min Rain = 0
KCH1 102201Z 13003KT 09/M01 A3031 RMK A01 T00891005  RH  052%=      5-min Rain = 0
KCH1 102202Z 15004KT 09/M00 A3031 RMK A01 T00881003  RH  053%=      5-min Rain = 0
KCH1 102203Z 13004KT 09/M01 A3031 RMK A01 T00881005  RH  052%=      5-min Rain = 0
KCH1 102204Z 15004KT 09/M00 A3031 RMK A01 T00861003  RH  053%=      5-min Rain = 0
KCH1 102205Z 14004KT 09/M00 A3031 RMK A01 T00851004  RH  054%=      5-min Rain = 0
KCH1 102206Z 15004KT 08/M00 A3031 RMK A01 T00831003  RH  055%=      5-min Rain = 0
KCH1 102207Z 14004KT 08/M00 A3031 RMK A01 T00821003  RH  055%=      5-min Rain = 0
KCH1 102208Z 14001KT 08/M00 A3031 RMK A01 T00811003  RH  055%=      5-min Rain = 0
KCH1 102209Z 20000KT 08/M00 A3031 RMK A01 T00801002  RH  056%=      5-min Rain = 0
KCH1 102210Z 21003KT 08/00 A3031 RMK A01 T00800000  RH  057%=      5-min Rain = 0
KCH1 102211Z 21003KT 08/00 A3031 RMK A01 T00800000  RH  057%=      5-min Rain = 0
KCH1 102212Z 22002KT 08/M00 A3031 RMK A01 T00801001  RH  057%=      5-min Rain = 0
KCH1 102213Z 19004KT 08/00 A3031 RMK A01 T00800002  RH  058%=      5-min Rain = 0
KCH1 102214Z 19005KT 08/00 A3031 RMK A01 T00800001  RH  057%=      5-min Rain = 0
KCH1 102215Z 17004KT 08/00 A3031 RMK A01 T00800000  RH  057%=      5-min Rain = 0
KCH1 102216Z 19004KT 08/00 A3031 RMK A01 T00800002  RH  058%=      5-min Rain = 0
KCH1 102217Z 21004KT 08/00 A3031 RMK A01 T00790002  RH  058%=      5-min Rain = 0
KCH1 102218Z 19005KT 08/00 A3031 RMK A01 T00790004  RH  059%=      5-min Rain = 0
KCH1 102219Z 21004KT 08/00 A3031 RMK A01 T00790001  RH  058%=      5-min Rain = 0
KCH1 102220Z 22004KT 08/00 A3031 RMK A01 T00790001  RH  058%=      5-min Rain = 0
KCH1 102221Z 19003KT 08/00 A3031 RMK A01 T00780000  RH  058%=      5-min Rain = 0
KCH1 102222Z 18002KT 08/M00 A3031 RMK A01 T00771001  RH  058%=      5-min Rain = 0
KCH1 102223Z 20002KT 08/M00 A3031 RMK A01 T00761001  RH  058%=      5-min Rain = 0
KCH1 102224Z 20002KT 08/00 A3031 RMK A01 T007600-0  RH  058%=      5-min Rain = 0
KCH1 102225Z 21002KT 08/00 A3031 RMK A01 T00760004  RH  060%=      5-min Rain = 0
KCH1 102226Z 22004KT 08/00 A3031 RMK A01 T00770002  RH  059%=      5-min Rain = 0
KCH1 102227Z 21003KT 08/00 A3032 RMK A01 T00770002  RH  059%=      5-min Rain = 0
KCH1 102228Z 21003KT 08/00 A3032 RMK A01 T00770003  RH  060%=      5-min Rain = 0
KCH1 102229Z 21002KT 08/00 A3032 RMK A01 T00770000  RH  058%=      5-min Rain = 0
KCH1 102230Z 20001KT 08/00 A3032 RMK A01 T00770001  RH  059%=      5-min Rain = 0
KCH1 102231Z 20003KT 08/00 A3032 RMK A01 T00770003  RH  059%=      5-min Rain = 0
KCH1 102232Z 19003KT 08/00 A3032 RMK A01 T00760000  RH  059%=      5-min Rain = 0
KCH1 102233Z 18003KT 08/00 A3032 RMK A01 T00760000  RH  059%=      5-min Rain = 0
KCH1 102234Z 18002KT 08/00 A3032 RMK A01 T00750001  RH  059%=      5-min Rain = 0
KCH1 102235Z 20002KT 08/00 A3032 RMK A01 T00750002  RH  060%=      5-min Rain = 0
KCH1 102236Z 20002KT 08/M00 A3032 RMK A01 T00751002  RH  058%=      5-min Rain = 0
KCH1 102237Z 22001KT 08/M00 A3032 RMK A01 T00751001  RH  059%=      5-min Rain = 0
KCH1 102238Z 21002KT 08/00 A3032 RMK A01 T00750001  RH  059%=      5-min Rain = 0
KCH1 102239Z 19003KT 08/00 A3032 RMK A01 T00750002  RH  060%=      5-min Rain = 0
KCH1 102240Z 21003KT 08/00 A3032 RMK A01 T00750001  RH  059%=      5-min Rain = 0
KCH1 102241Z 22003KT 08/00 A3032 RMK A01 T00750002  RH  060%=      5-min Rain = 0
KCH1 102242Z 21003KT 08/00 A3032 RMK A01 T00750001  RH  059%=      5-min Rain = 0
KCH1 102243Z 20003KT 07/00 A3032 RMK A01 T00740002  RH  060%=      5-min Rain = 0
KCH1 102244Z 20002KT 07/00 A3032 RMK A01 T007400-0  RH  059%=      5-min Rain = 0
KCH1 102245Z 21002KT 07/00 A3032 RMK A01 T007400-0  RH  059%=      5-min Rain = 0
KCH1 102246Z 22002KT 07/00 A3032 RMK A01 T007300-0  RH  059%=      5-min Rain = 0
KCH1 102247Z 21003KT 07/00 A3032 RMK A01 T00730001  RH  060%=      5-min Rain = 0
KCH1 102248Z 20002KT 07/00 A3032 RMK A01 T00730002  RH  060%=      5-min Rain = 0
KCH1 102249Z 19003KT 07/00 A3032 RMK A01 T00740003  RH  061%=      5-min Rain = 0
KCH1 102250Z 18003KT 07/00 A3032 RMK A01 T00740001  RH  060%=      5-min Rain = 0
KCH1 102251Z 18003KT 07/00 A3032 RMK A01 T00740002  RH  060%=      5-min Rain = 0
KCH1 102252Z 18003KT 07/00 A3032 RMK A01 T00740003  RH  061%=      5-min Rain = 0
KCH1 102253Z 17004KT 08/01 A3032 RMK A01 T00750005  RH  061%=      5-min Rain = 0
KCH1 102254Z 19003KT 07/00 A3032 RMK A01 T00740004  RH  061%=      5-min Rain = 0
KCH1 102255Z 19005KT 07/00 A3032 RMK A01 T00740003  RH  061%=      5-min Rain = 0
KCH1 102256Z 18004KT 07/00 A3032 RMK A01 T00730001  RH  060%=      5-min Rain = 0
KCH1 102257Z 18005KT 07/00 A3032 RMK A01 T00720003  RH  061%=      5-min Rain = 0
KCH1 102258Z 18004KT 07/00 A3032 RMK A01 T00720003  RH  061%=      5-min Rain = 0
KCH1 102259Z 18004KT 07/00 A3032 RMK A01 T00720002  RH  061%=      5-min Rain = 0
KCH1 102300Z 19004KT 07/00 A3032 RMK A01 T00720001  RH  061%=      5-min Rain = 0
KCH1 102301Z 19004KT 07/00 A3032 RMK A01 T00720002  RH  061%=      5-min Rain = 0
KCH1 102302Z 18004KT 07/00 A3032 RMK A01 T00720002  RH  061%=      5-min Rain = 0
KCH1 102303Z 18004KT 07/00 A3033 RMK A01 T00720001  RH  061%=      5-min Rain = 0
KCH1 102304Z 19003KT 07/00 A3033 RMK A01 T00720002  RH  061%=      5-min Rain = 0
KCH1 102305Z 18003KT 07/00 A3033 RMK A01 T00710001  RH  061%=      5-min Rain = 0
KCH1 102306Z 18003KT 07/00 A3033 RMK A01 T007100-0  RH  061%=      5-min Rain = 0
KCH1 102307Z 17003KT 07/00 A3033 RMK A01 T00710002  RH  061%=      5-min Rain = 0
KCH1 102308Z 17004KT 07/00 A3033 RMK A01 T00700001  RH  061%=      5-min Rain = 0
KCH1 102309Z 17004KT 07/00 A3033 RMK A01 T00710002  RH  062%=      5-min Rain = 0
KCH1 102310Z 18003KT 07/00 A3033 RMK A01 T00700003  RH  062%=      5-min Rain = 0
KCH1 102311Z 17003KT 07/00 A3033 RMK A01 T00700004  RH  063%=      5-min Rain = 0
KCH1 102312Z 18004KT 07/01 A3033 RMK A01 T00700006  RH  064%=      5-min Rain = 0
KCH1 102313Z 17003KT 07/01 A3033 RMK A01 T00690005  RH  064%=      5-min Rain = 0
KCH1 102314Z 18003KT 07/01 A3033 RMK A01 T00690005  RH  064%=      5-min Rain = 0
KCH1 102315Z 18004KT 07/01 A3033 RMK A01 T00680005  RH  064%=      5-min Rain = 0
KCH1 102316Z 17004KT 07/01 A3033 RMK A01 T00680005  RH  064%=      5-min Rain = 0
KCH1 102317Z 17004KT 07/00 A3033 RMK A01 T00670003  RH  063%=      5-min Rain = 0
KCH1 102318Z 17003KT 07/00 A3033 RMK A01 T00670003  RH  064%=      5-min Rain = 0
KCH1 102319Z 18002KT 07/00 A3033 RMK A01 T00670004  RH  064%=      5-min Rain = 0
KCH1 102320Z 18003KT 07/01 A3033 RMK A01 T00660005  RH  065%=      5-min Rain = 0
KCH1 102321Z 18003KT 07/01 A3033 RMK A01 T00660005  RH  065%=      5-min Rain = 0
KCH1 102322Z 17003KT 07/01 A3033 RMK A01 T00660005  RH  065%=      5-min Rain = 0
KCH1 102323Z 18002KT 07/01 A3033 RMK A01 T00650005  RH  065%=      5-min Rain = 0
KCH1 102324Z 18002KT 07/01 A3033 RMK A01 T00650006  RH  066%=      5-min Rain = 0
KCH1 102325Z 17003KT 07/01 A3033 RMK A01 T00650006  RH  066%=      5-min Rain = 0
KCH1 102326Z 17003KT 06/01 A3033 RMK A01 T00640006  RH  066%=      5-min Rain = 0
KCH1 102327Z 17003KT 06/01 A3033 RMK A01 T00640005  RH  066%=      5-min Rain = 0
KCH1 102328Z 17003KT 06/01 A3033 RMK A01 T00640006  RH  066%=      5-min Rain = 0
KCH1 102329Z 17003KT 06/01 A3033 RMK A01 T00630006  RH  067%=      5-min Rain = 0
KCH1 102330Z 18003KT 06/01 A3033 RMK A01 T00630006  RH  067%=      5-min Rain = 0
KCH1 102331Z 18003KT 06/01 A3033 RMK A01 T00630006  RH  067%=      5-min Rain = 0
KCH1 102332Z 18003KT 06/01 A3033 RMK A01 T00620006  RH  067%=      5-min Rain = 0
KCH1 102333Z 18003KT 06/01 A3033 RMK A01 T00620006  RH  068%=      5-min Rain = 0
KCH1 102334Z 18003KT 06/01 A3033 RMK A01 T00610006  RH  068%=      5-min Rain = 0
KCH1 102335Z 18003KT 06/01 A3033 RMK A01 T00610006  RH  068%=      5-min Rain = 0
KCH1 102336Z 17003KT 06/01 A3033 RMK A01 T00600006  RH  068%=      5-min Rain = 0
KCH1 102337Z 17003KT 06/01 A3034 RMK A01 T00600006  RH  068%=      5-min Rain = 0
KCH1 102338Z 17003KT 06/01 A3034 RMK A01 T00600006  RH  068%=      5-min Rain = 0
KCH1 102339Z 16003KT 06/01 A3034 RMK A01 T00590006  RH  069%=      5-min Rain = 0
KCH1 102340Z 15002KT 06/01 A3034 RMK A01 T00590005  RH  068%=      5-min Rain = 0
KCH1 102341Z 14002KT 06/01 A3034 RMK A01 T00590006  RH  069%=      5-min Rain = 0
KCH1 102342Z 14002KT 06/01 A3034 RMK A01 T00590006  RH  069%=      5-min Rain = 0
KCH1 102343Z 15002KT 06/01 A3034 RMK A01 T00580006  RH  069%=      5-min Rain = 0
KCH1 102344Z 15002KT 06/01 A3034 RMK A01 T00580007  RH  069%=      5-min Rain = 0
KCH1 102345Z 15002KT 06/01 A3034 RMK A01 T00580007  RH  070%=      5-min Rain = 0
KCH1 102346Z 15002KT 06/01 A3034 RMK A01 T00580007  RH  070%=      5-min Rain = 0
KCH1 102347Z 15002KT 06/01 A3034 RMK A01 T00580007  RH  070%=      5-min Rain = 0
KCH1 102348Z 15002KT 06/01 A3034 RMK A01 T00570007  RH  070%=      5-min Rain = 0
KCH1 102349Z 16003KT 06/01 A3034 RMK A01 T00570007  RH  070%=      5-min Rain = 0
KCH1 102350Z 16002KT 06/01 A3034 RMK A01 T00570007  RH  070%=      5-min Rain = 0
KCH1 102351Z 16002KT 06/01 A3034 RMK A01 T00570007  RH  070%=      5-min Rain = 0
KCH1 102352Z 16002KT 06/01 A3034 RMK A01 T00570007  RH  070%=      5-min Rain = 0
KCH1 102353Z 16003KT 06/01 A3034 RMK A01 T00560007  RH  071%=      5-min Rain = 0
KCH1 102354Z 16003KT 06/01 A3034 RMK A01 T00560007  RH  071%=      5-min Rain = 0
KCH1 102355Z 16003KT 06/01 A3034 RMK A01 T00560008  RH  071%=      5-min Rain = 0
KCH1 102356Z 16003KT 06/01 A3034 RMK A01 T00560008  RH  071%=      5-min Rain = 0
KCH1 102357Z 15003KT 06/01 A3034 RMK A01 T00560007  RH  071%=      5-min Rain = 0
KCH1 102358Z 14002KT 06/01 A3034 RMK A01 T00560007  RH  071%=      5-min Rain = 0
KCH1 102359Z 12002KT 06/01 A3034 RMK A01 T00550008  RH  072%=      5-min Rain = 0
KCH1 110000Z 12002KT 05/01 A3034 RMK A01 T00540008  RH  072%=      5-min Rain = 0
KCH1 110001Z 14003KT 05/01 A3034 RMK A01 T00540009  RH  073%=      5-min Rain = 0
KCH1 110002Z 14002KT 05/01 A3034 RMK A01 T00530009  RH  073%=      5-min Rain = 0
KCH1 110003Z 15003KT 05/01 A3034 RMK A01 T00530009  RH  073%=      5-min Rain = 0
KCH1 110004Z 14003KT 05/01 A3034 RMK A01 T00530009  RH  073%=      5-min Rain = 0
KCH1 110005Z 14003KT 05/01 A3034 RMK A01 T00530009  RH  073%=      5-min Rain = 0
KCH1 110006Z 14003KT 05/01 A3034 RMK A01 T00530009  RH  074%=      5-min Rain = 0
KCH1 110007Z 14004KT 05/01 A3034 RMK A01 T00520009  RH  074%=      5-min Rain = 0
KCH1 110008Z 13003KT 05/01 A3035 RMK A01 T00520009  RH  074%=      5-min Rain = 0
KCH1 110009Z 14003KT 05/01 A3035 RMK A01 T00510009  RH  074%=      5-min Rain = 0
KCH1 110010Z 15003KT 05/01 A3035 RMK A01 T00510009  RH  075%=      5-min Rain = 0
KCH1 110011Z 16003KT 05/01 A3035 RMK A01 T00500010  RH  075%=      5-min Rain = 0
KCH1 110012Z 16003KT 05/01 A3035 RMK A01 T00490010  RH  076%=      5-min Rain = 0
KCH1 110013Z 17004KT 05/01 A3035 RMK A01 T00490010  RH  076%=      5-min Rain = 0
KCH1 110014Z 16004KT 05/01 A3035 RMK A01 T00480009  RH  076%=      5-min Rain = 0
KCH1 110015Z 16004KT 05/01 A3035 RMK A01 T00480008  RH  075%=      5-min Rain = 0
KCH1 110016Z 15004KT 05/01 A3035 RMK A01 T00480007  RH  075%=      5-min Rain = 0
KCH1 110017Z 15004KT 05/01 A3035 RMK A01 T00480006  RH  074%=      5-min Rain = 0
KCH1 110018Z 15004KT 05/01 A3035 RMK A01 T00490006  RH  074%=      5-min Rain = 0
KCH1 110019Z 16004KT 05/01 A3035 RMK A01 T00490006  RH  074%=      5-min Rain = 0
KCH1 110020Z 16004KT 05/01 A3035 RMK A01 T00480005  RH  074%=      5-min Rain = 0
KCH1 110021Z 16004KT 05/01 A3035 RMK A01 T00490005  RH  074%=      5-min Rain = 0
KCH1 110022Z 16003KT 05/01 A3035 RMK A01 T00490006  RH  074%=      5-min Rain = 0
KCH1 110023Z 15003KT 05/01 A3035 RMK A01 T00480006  RH  074%=      5-min Rain = 0
KCH1 110024Z 15003KT 05/01 A3035 RMK A01 T00480007  RH  075%=      5-min Rain = 0
KCH1 110025Z 16003KT 05/01 A3035 RMK A01 T00470007  RH  075%=      5-min Rain = 0
KCH1 110026Z 16004KT 05/01 A3035 RMK A01 T00470007  RH  075%=      5-min Rain = 0
KCH1 110027Z 16004KT 05/01 A3035 RMK A01 T00460007  RH  075%=      5-min Rain = 0
KCH1 110028Z 16004KT 05/01 A3035 RMK A01 T00460007  RH  076%=      5-min Rain = 0
KCH1 110029Z 16004KT 05/01 A3035 RMK A01 T00460007  RH  076%=      5-min Rain = 0
KCH1 110030Z 16004KT 05/01 A3035 RMK A01 T00450007  RH  076%=      5-min Rain = 0
KCH1 110031Z 16005KT 05/01 A3035 RMK A01 T00450007  RH  076%=      5-min Rain = 0
KCH1 110032Z 16005KT 05/01 A3035 RMK A01 T00450006  RH  076%=      5-min Rain = 0
KCH1 110033Z 16004KT 05/01 A3035 RMK A01 T00460006  RH  075%=      5-min Rain = 0
KCH1 110034Z 17004KT 05/01 A3035 RMK A01 T00450005  RH  075%=      5-min Rain = 0
KCH1 110035Z 17005KT 05/01 A3036 RMK A01 T00450005  RH  075%=      5-min Rain = 0
KCH1 110036Z 16005KT 05/01 A3036 RMK A01 T00450005  RH  075%=      5-min Rain = 0
KCH1 110037Z 16004KT 05/01 A3036 RMK A01 T00450005  RH  076%=      5-min Rain = 0
KCH1 110038Z 16004KT 04/01 A3036 RMK A01 T00440005  RH  076%=      5-min Rain = 0
KCH1 110039Z 16004KT 04/01 A3036 RMK A01 T00440005  RH  076%=      5-min Rain = 0
KCH1 110040Z 16004KT 04/01 A3036 RMK A01 T00430005  RH  076%=      5-min Rain = 0
KCH1 110041Z 16004KT 04/01 A3036 RMK A01 T00430005  RH  076%=      5-min Rain = 0
KCH1 110042Z 16004KT 04/01 A3036 RMK A01 T00430005  RH  076%=      5-min Rain = 0
KCH1 110043Z 16004KT 04/01 A3036 RMK A01 T00430005  RH  076%=      5-min Rain = 0
KCH1 110044Z 17004KT 04/01 A3036 RMK A01 T00430005  RH  077%=      5-min Rain = 0
KCH1 110045Z 16004KT 04/01 A3036 RMK A01 T00420005  RH  077%=      5-min Rain = 0
KCH1 110046Z 17004KT 04/01 A3036 RMK A01 T00420005  RH  077%=      5-min Rain = 0
KCH1 110047Z 16004KT 04/01 A3036 RMK A01 T00420005  RH  077%=      5-min Rain = 0
KCH1 110048Z 16004KT 04/01 A3036 RMK A01 T00420005  RH  077%=      5-min Rain = 0
KCH1 110049Z 15004KT 04/01 A3036 RMK A01 T00420005  RH  077%=      5-min Rain = 0
KCH1 110050Z 15003KT 04/01 A3036 RMK A01 T00410005  RH  077%=      5-min Rain = 0
KCH1 110051Z 15003KT 04/01 A3036 RMK A01 T00400005  RH  078%=      5-min Rain = 0
KCH1 110052Z 15003KT 04/01 A3036 RMK A01 T00390005  RH  079%=      5-min Rain = 0
KCH1 110053Z 14004KT 04/01 A3036 RMK A01 T00380005  RH  079%=      5-min Rain = 0
KCH1 110054Z 14004KT 04/01 A3036 RMK A01 T00360005  RH  080%=      5-min Rain = 0
KCH1 110055Z 14004KT 04/01 A3036 RMK A01 T00360005  RH  080%=      5-min Rain = 0
KCH1 110056Z 14004KT 04/01 A3036 RMK A01 T00350005  RH  081%=      5-min Rain = 0
KCH1 110057Z 14004KT 04/01 A3036 RMK A01 T00350006  RH  081%=      5-min Rain = 0
KCH1 110058Z 15004KT 03/01 A3036 RMK A01 T00340006  RH  082%=      5-min Rain = 0
KCH1 110059Z 15004KT 03/01 A3036 RMK A01 T00330006  RH  082%=      5-min Rain = 0
KCH1 110100Z 15003KT 03/01 A3036 RMK A01 T00320006  RH  083%=      5-min Rain = 0
KCH1 110101Z 15003KT 03/01 A3037 RMK A01 T00310006  RH  083%=      5-min Rain = 0
KCH1 110102Z 15003KT 03/01 A3037 RMK A01 T00300006  RH  084%=      5-min Rain = 0
KCH1 110103Z 15003KT 03/01 A3037 RMK A01 T00300006  RH  084%=      5-min Rain = 0
KCH1 110104Z 15003KT 03/01 A3037 RMK A01 T00300007  RH  085%=      5-min Rain = 0
KCH1 110105Z 15003KT 03/01 A3037 RMK A01 T00300007  RH  085%=      5-min Rain = 0
KCH1 110106Z 16003KT 03/01 A3037 RMK A01 T00310007  RH  084%=      5-min Rain = 0
KCH1 110107Z 16003KT 03/01 A3037 RMK A01 T00320007  RH  084%=      5-min Rain = 0
KCH1 110108Z 15003KT 03/01 A3037 RMK A01 T00320007  RH  083%=      5-min Rain = 0
KCH1 110109Z 15002KT 03/01 A3037 RMK A01 T00330006  RH  083%=      5-min Rain = 0
KCH1 110110Z 14002KT 03/01 A3037 RMK A01 T00330007  RH  083%=      5-min Rain = 0
KCH1 110111Z 13002KT 03/01 A3037 RMK A01 T00330007  RH  083%=      5-min Rain = 0
KCH1 110112Z 13003KT 03/01 A3037 RMK A01 T00320007  RH  084%=      5-min Rain = 0
KCH1 110113Z 13003KT 03/01 A3037 RMK A01 T00310007  RH  084%=      5-min Rain = 0
KCH1 110114Z 13003KT 03/01 A3037 RMK A01 T00310008  RH  085%=      5-min Rain = 0
KCH1 110115Z 13002KT 03/01 A3037 RMK A01 T00300008  RH  085%=      5-min Rain = 0
KCH1 110116Z 14002KT 03/01 A3037 RMK A01 T00300008  RH  085%=      5-min Rain = 0
KCH1 110117Z 14003KT 03/01 A3037 RMK A01 T00300008  RH  085%=      5-min Rain = 0
KCH1 110118Z 15002KT 03/01 A3037 RMK A01 T00290008  RH  086%=      5-min Rain = 0
KCH1 110119Z 14003KT 03/01 A3037 RMK A01 T00290008  RH  086%=      5-min Rain = 0
KCH1 110120Z 14003KT 03/01 A3037 RMK A01 T00290008  RH  086%=      5-min Rain = 0
KCH1 110121Z 14003KT 03/01 A3037 RMK A01 T00290007  RH  085%=      5-min Rain = 0
KCH1 110122Z 14003KT 03/01 A3037 RMK A01 T00290007  RH  085%=      5-min Rain = 0
KCH1 110123Z 13002KT 03/01 A3037 RMK A01 T00290007  RH  085%=      5-min Rain = 0
KCH1 110124Z 13002KT 03/01 A3037 RMK A01 T00290007  RH  085%=      5-min Rain = 0
KCH1 110125Z 13002KT 03/01 A3037 RMK A01 T00290007  RH  086%=      5-min Rain = 0
KCH1 110126Z 13002KT 03/01 A3037 RMK A01 T00280006  RH  086%=      5-min Rain = 0
KCH1 110127Z 14002KT 03/01 A3037 RMK A01 T00270006  RH  086%=      5-min Rain = 0
KCH1 110128Z 13002KT 03/01 A3037 RMK A01 T00260006  RH  086%=      5-min Rain = 0
KCH1 110129Z 12002KT 03/01 A3037 RMK A01 T00260006  RH  087%=      5-min Rain = 0
KCH1 110130Z 11002KT 03/01 A3037 RMK A01 T00260006  RH  087%=      5-min Rain = 0
KCH1 110131Z 12002KT 03/01 A3037 RMK A01 T00250005  RH  087%=      5-min Rain = 0
KCH1 110132Z 13002KT 02/01 A3037 RMK A01 T00240005  RH  087%=      5-min Rain = 0
KCH1 110133Z 13002KT 02/01 A3037 RMK A01 T00240005  RH  087%=      5-min Rain = 0
KCH1 110134Z 14002KT 02/01 A3037 RMK A01 T00230005  RH  088%=      5-min Rain = 0
KCH1 110135Z 14002KT 02/01 A3037 RMK A01 T00240006  RH  088%=      5-min Rain = 0
KCH1 110136Z 15002KT 02/01 A3038 RMK A01 T00240006  RH  088%=      5-min Rain = 0
KCH1 110137Z 15002KT 02/01 A3038 RMK A01 T00240006  RH  088%=      5-min Rain = 0
KCH1 110138Z 15002KT 03/01 A3038 RMK A01 T00250006  RH  088%=      5-min Rain = 0
KCH1 110139Z 15002KT 03/01 A3038 RMK A01 T00250006  RH  088%=      5-min Rain = 0
KCH1 110140Z 15002KT 03/01 A3038 RMK A01 T00250006  RH  087%=      5-min Rain = 0
KCH1 110141Z 14002KT 03/01 A3038 RMK A01 T00250006  RH  087%=      5-min Rain = 0
KCH1 110142Z 14002KT 03/01 A3038 RMK A01 T00250005  RH  087%=      5-min Rain = 0
KCH1 110143Z 14002KT 03/01 A3038 RMK A01 T00250005  RH  087%=      5-min Rain = 0
KCH1 110144Z 14002KT 03/01 A3038 RMK A01 T00250005  RH  087%=      5-min Rain = 0
KCH1 110145Z 15002KT 03/01 A3038 RMK A01 T00250005  RH  086%=      5-min Rain = 0
KCH1 110146Z 15002KT 03/00 A3038 RMK A01 T00250004  RH  087%=      5-min Rain = 0
KCH1 110147Z 15002KT 02/00 A3038 RMK A01 T00240004  RH  087%=      5-min Rain = 0
KCH1 110148Z 15003KT 02/00 A3038 RMK A01 T00230004  RH  087%=      5-min Rain = 0
KCH1 110149Z 15002KT 02/00 A3038 RMK A01 T00230003  RH  087%=      5-min Rain = 0
KCH1 110150Z 15003KT 02/00 A3038 RMK A01 T00220003  RH  087%=      5-min Rain = 0
KCH1 110151Z 15003KT 02/00 A3038 RMK A01 T00220003  RH  088%=      5-min Rain = 0
KCH1 110152Z 16003KT 02/00 A3038 RMK A01 T00210004  RH  088%=      5-min Rain = 0
KCH1 110153Z 15002KT 02/00 A3038 RMK A01 T00220004  RH  088%=      5-min Rain = 0
KCH1 110154Z 15002KT 02/00 A3038 RMK A01 T00210003  RH  088%=      5-min Rain = 0
KCH1 110155Z 15002KT 02/00 A3038 RMK A01 T00210003  RH  088%=      5-min Rain = 0
KCH1 110156Z 15002KT 02/00 A3038 RMK A01 T00210003  RH  088%=      5-min Rain = 0
KCH1 110157Z 15002KT 02/00 A3038 RMK A01 T00210003  RH  088%=      5-min Rain = 0
KCH1 110158Z 15002KT 02/00 A3038 RMK A01 T00210004  RH  088%=      5-min Rain = 0
KCH1 110159Z 15002KT 02/00 A3038 RMK A01 T00210004  RH  088%=      5-min Rain = 0
KCH1 110200Z 16002KT 02/00 A3038 RMK A01 T00220004  RH  088%=      5-min Rain = 0
KCH1 110201Z 15002KT 02/00 A3038 RMK A01 T00220004  RH  088%=      5-min Rain = 0
KCH1 110202Z 14002KT 02/00 A3038 RMK A01 T00230004  RH  088%=      5-min Rain = 0
KCH1 110203Z 12002KT 02/00 A3038 RMK A01 T00230003  RH  087%=      5-min Rain = 0
KCH1 110204Z 10002KT 02/00 A3038 RMK A01 T00220002  RH  086%=      5-min Rain = 0
KCH1 110205Z 10002KT 02/M00 A3038 RMK A01 T00181003  RH  086%=      5-min Rain = 0
KCH1 110206Z 11002KT 02/M00 A3038 RMK A01 T00151004  RH  087%=      5-min Rain = 0
KCH1 110207Z 12002KT 01/M00 A3038 RMK A01 T00141002  RH  089%=      5-min Rain = 0
KCH1 110208Z 12002KT 01/00 A3038 RMK A01 T001400-0  RH  090%=      5-min Rain = 0
KCH1 110209Z 13002KT 01/00 A3038 RMK A01 T00140001  RH  091%=      5-min Rain = 0
KCH1 110210Z 12002KT 02/00 A3038 RMK A01 T00150001  RH  091%=      5-min Rain = 0
KCH1 110211Z 12002KT 02/00 A3038 RMK A01 T00160003  RH  091%=      5-min Rain = 0
KCH1 110212Z 13002KT 02/00 A3038 RMK A01 T00170003  RH  090%=      5-min Rain = 0
KCH1 110213Z 13002KT 02/00 A3038 RMK A01 T00170003  RH  090%=      5-min Rain = 0
KCH1 110214Z 14002KT 02/00 A3038 RMK A01 T00170002  RH  090%=      5-min Rain = 0
KCH1 110215Z 14003KT 02/00 A3038 RMK A01 T00180003  RH  090%=      5-min Rain = 0
KCH1 110216Z 14002KT 02/00 A3038 RMK A01 T00190004  RH  090%=      5-min Rain = 0
KCH1 110217Z 14002KT 02/00 A3038 RMK A01 T00200004  RH  089%=      5-min Rain = 0
KCH1 110218Z 14002KT 02/00 A3038 RMK A01 T00200003  RH  088%=      5-min Rain = 0
KCH1 110219Z 14003KT 02/00 A3038 RMK A01 T00200002  RH  088%=      5-min Rain = 0
KCH1 110220Z 14003KT 02/00 A3038 RMK A01 T00190001  RH  088%=      5-min Rain = 0
KCH1 110221Z 13003KT 02/00 A3038 RMK A01 T00190001  RH  088%=      5-min Rain = 0
KCH1 110222Z 13003KT 02/00 A3038 RMK A01 T00180000  RH  088%=      5-min Rain = 0
KCH1 110223Z 13003KT 02/00 A3038 RMK A01 T00170000  RH  089%=      5-min Rain = 0
KCH1 110224Z 14003KT 02/00 A3038 RMK A01 T00160000  RH  089%=      5-min Rain = 0
KCH1 110225Z 13003KT 02/00 A3038 RMK A01 T00160001  RH  090%=      5-min Rain = 0
KCH1 110226Z 13003KT 02/00 A3038 RMK A01 T00160001  RH  090%=      5-min Rain = 0
KCH1 110227Z 13003KT 02/00 A3038 RMK A01 T00150000  RH  090%=      5-min Rain = 0
KCH1 110228Z 13002KT 02/00 A3038 RMK A01 T00150000  RH  090%=      5-min Rain = 0
KCH1 110229Z 13002KT 01/M00 A3038 RMK A01 T00141001  RH  090%=      5-min Rain = 0
KCH1 110230Z 12002KT 01/M00 A3038 RMK A01 T00131002  RH  090%=      5-min Rain = 0
KCH1 110231Z 13001KT 01/M00 A3038 RMK A01 T00121003  RH  090%=      5-min Rain = 0
KCH1 110232Z 14002KT 01/M00 A3038 RMK A01 T00111002  RH  091%=      5-min Rain = 0
KCH1 110233Z 14002KT 01/M00 A3038 RMK A01 T00121001  RH  091%=      5-min Rain = 0
KCH1 110234Z 14002KT 01/M00 A3038 RMK A01 T00121001  RH  091%=      5-min Rain = 0
KCH1 110235Z 14002KT 01/00 A3038 RMK A01 T00120000  RH  092%=      5-min Rain = 0
KCH1 110236Z 14001KT 01/00 A3038 RMK A01 T00130001  RH  092%=      5-min Rain = 0
KCH1 110237Z 15001KT 01/00 A3038 RMK A01 T00130001  RH  092%=      5-min Rain = 0
KCH1 110238Z 13002KT 01/00 A3038 RMK A01 T00140002  RH  092%=      5-min Rain = 0
KCH1 110239Z 12001KT 01/00 A3038 RMK A01 T00140002  RH  091%=      5-min Rain = 0
KCH1 110240Z 12001KT 01/00 A3038 RMK A01 T00140001  RH  091%=      5-min Rain = 0
KCH1 110241Z 13001KT 02/00 A3038 RMK A01 T00150002  RH  091%=      5-min Rain = 0
KCH1 110242Z 12001KT 02/00 A3038 RMK A01 T00150001  RH  091%=      5-min Rain = 0
KCH1 110243Z 14001KT 02/00 A3038 RMK A01 T00150001  RH  090%=      5-min Rain = 0
KCH1 110244Z 13002KT 01/00 A3038 RMK A01 T001400-0  RH  090%=      5-min Rain = 0
KCH1 110245Z 14002KT 01/00 A3038 RMK A01 T00140000  RH  091%=      5-min Rain = 0
KCH1 110246Z 15002KT 01/00 A3038 RMK A01 T00140000  RH  091%=      5-min Rain = 0
KCH1 110247Z 14002KT 01/00 A3038 RMK A01 T00140001  RH  091%=      5-min Rain = 0
KCH1 110248Z 12002KT 02/00 A3038 RMK A01 T00150002  RH  091%=      5-min Rain = 0
KCH1 110249Z 11001KT 02/00 A3038 RMK A01 T00160001  RH  090%=      5-min Rain = 0
KCH1 110250Z 12001KT 02/00 A3038 RMK A01 T00160001  RH  090%=      5-min Rain = 0
KCH1 110251Z 13001KT 02/00 A3039 RMK A01 T00160001  RH  089%=      5-min Rain = 0
KCH1 110252Z 12001KT 02/00 A3039 RMK A01 T001600-0  RH  089%=      5-min Rain = 0
KCH1 110253Z 13001KT 02/00 A3039 RMK A01 T00160000  RH  089%=      5-min Rain = 0
KCH1 110254Z 13001KT 02/00 A3039 RMK A01 T00160000  RH  089%=      5-min Rain = 0
KCH1 110255Z 12001KT 02/00 A3039 RMK A01 T001600-0  RH  089%=      5-min Rain = 0
KCH1 110256Z 13001KT 02/M00 A3039 RMK A01 T00151001  RH  089%=      5-min Rain = 0
KCH1 110257Z 11000KT 02/M00 A3039 RMK A01 T00151001  RH  089%=      5-min Rain = 0
KCH1 110258Z 12001KT 02/00 A3039 RMK A01 T001500-0  RH  089%=      5-min Rain = 0
KCH1 110259Z 13001KT 02/00 A3039 RMK A01 T001500-0  RH  089%=      5-min Rain = 0
KCH1 110300Z 13000KT 02/00 A3039 RMK A01 T001500-0  RH  089%=      5-min Rain = 0
KCH1 110301Z 13000KT 02/M00 A3039 RMK A01 T00151001  RH  089%=      5-min Rain = 0
KCH1 110302Z 00000KT 02/M00 A3039 RMK A01 T00151001  RH  089%=      5-min Rain = 0
KCH1 110303Z 00000KT 02/M00 A3039 RMK A01 T00151001  RH  089%=      5-min Rain = 0
KCH1 110304Z 00000KT 02/M00 A3039 RMK A01 T00151001  RH  090%=      5-min Rain = 0
KCH1 110305Z 00000KT 01/M00 A3039 RMK A01 T00141001  RH  090%=      5-min Rain = 0
KCH1 110306Z 00000KT 01/M00 A3039 RMK A01 T00141001  RH  090%=      5-min Rain = 0
KCH1 110307Z 15000KT 01/M00 A3039 RMK A01 T00141001  RH  090%=      5-min Rain = 0
KCH1 110308Z 00000KT 01/M00 A3039 RMK A01 T00141001  RH  090%=      5-min Rain = 0
KCH1 110309Z 00000KT 01/00 A3039 RMK A01 T001400-0  RH  090%=      5-min Rain = 0
KCH1 110310Z 00000KT 01/00 A3039 RMK A01 T00140000  RH  091%=      5-min Rain = 0
KCH1 110311Z 00000KT 01/00 A3039 RMK A01 T00140001  RH  091%=      5-min Rain = 0
KCH1 110312Z 20001KT 01/00 A3039 RMK A01 T00140001  RH  091%=      5-min Rain = 0
KCH1 110313Z 20000KT 01/00 A3039 RMK A01 T00130002  RH  092%=      5-min Rain = 0
KCH1 110314Z 00000KT 01/00 A3039 RMK A01 T00130002  RH  092%=      5-min Rain = 0
KCH1 110315Z 00000KT 01/00 A3039 RMK A01 T00140003  RH  093%=      5-min Rain = 0
KCH1 110316Z 00000KT 01/00 A3039 RMK A01 T00130003  RH  092%=      5-min Rain = 0
KCH1 110317Z 00000KT 01/00 A3039 RMK A01 T00140003  RH  092%=      5-min Rain = 0
KCH1 110318Z 00000KT 01/00 A3039 RMK A01 T00140003  RH  092%=      5-min Rain = 0
KCH1 110319Z 00000KT 01/00 A3039 RMK A01 T00140003  RH  092%=      5-min Rain = 0
KCH1 110320Z 00000KT 01/00 A3039 RMK A01 T00140002  RH  092%=      5-min Rain = 0
KCH1 110321Z 00000KT 01/00 A3039 RMK A01 T00140002  RH  092%=      5-min Rain = 0
KCH1 110322Z 00000KT 01/00 A3039 RMK A01 T00140002  RH  091%=      5-min Rain = 0
KCH1 110323Z 00000KT 01/00 A3039 RMK A01 T00140001  RH  091%=      5-min Rain = 0
KCH1 110324Z 00000KT 02/00 A3039 RMK A01 T00150001  RH  091%=      5-min Rain = 0
KCH1 110325Z 00000KT 01/00 A3039 RMK A01 T00140001  RH  091%=      5-min Rain = 0
KCH1 110326Z 19000KT 01/00 A3039 RMK A01 T00140001  RH  091%=      5-min Rain = 0
KCH1 110327Z 20001KT 01/00 A3039 RMK A01 T00140001  RH  091%=      5-min Rain = 0
KCH1 110328Z 20001KT 01/00 A3039 RMK A01 T00140000  RH  090%=      5-min Rain = 0
KCH1 110329Z 20001KT 01/00 A3039 RMK A01 T00140000  RH  090%=      5-min Rain = 0
KCH1 110330Z 20001KT 01/00 A3039 RMK A01 T00140001  RH  091%=      5-min Rain = 0
KCH1 110331Z 19001KT 01/00 A3039 RMK A01 T00140001  RH  091%=      5-min Rain = 0
KCH1 110332Z 19001KT 01/00 A3039 RMK A01 T00130000  RH  091%=      5-min Rain = 0
KCH1 110333Z 19001KT 01/00 A3039 RMK A01 T00140001  RH  091%=      5-min Rain = 0
KCH1 110334Z 19001KT 01/00 A3039 RMK A01 T00130000  RH  091%=      5-min Rain = 0
KCH1 110335Z 19001KT 01/00 A3039 RMK A01 T00130001  RH  092%=      5-min Rain = 0
KCH1 110336Z 19002KT 01/00 A3039 RMK A01 T00130001  RH  092%=      5-min Rain = 0
KCH1 110337Z 19002KT 01/00 A3039 RMK A01 T00130002  RH  092%=      5-min Rain = 0
KCH1 110338Z 19002KT 01/00 A3039 RMK A01 T00140002  RH  092%=      5-min Rain = 0
KCH1 110339Z 18002KT 01/00 A3039 RMK A01 T00140002  RH  092%=      5-min Rain = 0
KCH1 110340Z 18002KT 01/00 A3039 RMK A01 T00140002  RH  092%=      5-min Rain = 0
KCH1 110341Z 18002KT 01/00 A3039 RMK A01 T00140001  RH  092%=      5-min Rain = 0
KCH1 110342Z 18002KT 01/00 A3039 RMK A01 T00130001  RH  091%=      5-min Rain = 0
KCH1 110343Z 18002KT 01/00 A3039 RMK A01 T00130001  RH  092%=      5-min Rain = 0
KCH1 110344Z 18002KT 01/00 A3039 RMK A01 T00130001  RH  092%=      5-min Rain = 0
KCH1 110345Z 17002KT 01/00 A3039 RMK A01 T00120001  RH  092%=      5-min Rain = 0
KCH1 110346Z 17002KT 01/00 A3039 RMK A01 T00130001  RH  092%=      5-min Rain = 0
KCH1 110347Z 17002KT 01/00 A3039 RMK A01 T00120000  RH  092%=      5-min Rain = 0
KCH1 110348Z 18002KT 01/M00 A3039 RMK A01 T00111002  RH  091%=      5-min Rain = 0
KCH1 110349Z 18002KT 01/M00 A3039 RMK A01 T00101003  RH  091%=      5-min Rain = 0
KCH1 110350Z 17002KT 01/M00 A3039 RMK A01 T00091003  RH  092%=      5-min Rain = 0
KCH1 110351Z 17002KT 01/M00 A3039 RMK A01 T00091002  RH  092%=      5-min Rain = 0
KCH1 110352Z 17002KT 01/M00 A3039 RMK A01 T00091001  RH  093%=      5-min Rain = 0
KCH1 110353Z 17002KT 01/00 A3039 RMK A01 T001000-0  RH  093%=      5-min Rain = 0
KCH1 110354Z 17002KT 01/00 A3039 RMK A01 T00100000  RH  093%=      5-min Rain = 0
KCH1 110355Z 17002KT 01/00 A3039 RMK A01 T00110001  RH  093%=      5-min Rain = 0
KCH1 110356Z 17003KT 01/00 A3039 RMK A01 T00110001  RH  093%=      5-min Rain = 0
KCH1 110357Z 17003KT 01/00 A3039 RMK A01 T00120002  RH  093%=      5-min Rain = 0
KCH1 110358Z 17003KT 01/00 A3039 RMK A01 T00120002  RH  093%=      5-min Rain = 0
KCH1 110359Z 17003KT 01/00 A3039 RMK A01 T00110000  RH  092%=      5-min Rain = 0
KCH1 110400Z 17003KT 01/M00 A3039 RMK A01 T00111001  RH  092%=      5-min Rain = 0
KCH1 110401Z 17003KT 01/M00 A3039 RMK A01 T00101002  RH  092%=      5-min Rain = 0
KCH1 110402Z 17003KT 01/M00 A3039 RMK A01 T00081004  RH  091%=      5-min Rain = 0
KCH1 110403Z 17002KT 01/M01 A3039 RMK A01 T00061008  RH  091%=      5-min Rain = 0
KCH1 110404Z 17002KT 00/M01 A3039 RMK A01 T00041009  RH  091%=      5-min Rain = 0
KCH1 110405Z 17002KT 00/M01 A3039 RMK A01 T00031009  RH  092%=      5-min Rain = 0
KCH1 110406Z 17002KT 00/M01 A3039 RMK A01 T00031007  RH  093%=      5-min Rain = 0
KCH1 110407Z 17002KT 00/M00 A3039 RMK A01 T00041004  RH  094%=      5-min Rain = 0
KCH1 110408Z 17003KT 01/M00 A3039 RMK A01 T00051003  RH  094%=      5-min Rain = 0
KCH1 110409Z 17003KT 01/M00 A3039 RMK A01 T00051003  RH  094%=      5-min Rain = 0
KCH1 110410Z 17002KT 01/M00 A3039 RMK A01 T00061002  RH  095%=      5-min Rain = 0
KCH1 110411Z 17002KT 01/M00 A3039 RMK A01 T00061001  RH  095%=      5-min Rain = 0
KCH1 110412Z 17002KT 01/M00 A3039 RMK A01 T00061001  RH  095%=      5-min Rain = 0
KCH1 110413Z 17002KT 01/M00 A3039 RMK A01 T00071001  RH  095%=      5-min Rain = 0
KCH1 110414Z 17002KT 01/M00 A3039 RMK A01 T00071001  RH  094%=      5-min Rain = 0
KCH1 110415Z 17002KT 01/M00 A3039 RMK A01 T00071002  RH  094%=      5-min Rain = 0
KCH1 110416Z 17002KT 01/M00 A3039 RMK A01 T00061003  RH  094%=      5-min Rain = 0
KCH1 110417Z 17002KT 01/M00 A3039 RMK A01 T00051004  RH  094%=      5-min Rain = 0
KCH1 110418Z 16001KT 00/M01 A3039 RMK A01 T00041005  RH  094%=      5-min Rain = 0
KCH1 110419Z 16001KT 00/M01 A3039 RMK A01 T00041005  RH  094%=      5-min Rain = 0
KCH1 110420Z 16001KT 00/M01 A3039 RMK A01 T00021007  RH  094%=      5-min Rain = 0
KCH1 110421Z 16001KT 00/01 A304 RMK A01 T00-00-10  RH  093%=      5-min Rain = 0
KCH1 110422Z 16001KT M00/M01 A304 RMK A01 T10011011  RH  093%=      5-min Rain = 0
KCH1 110423Z 15001KT M00/M01 A304 RMK A01 T10021010  RH  094%=      5-min Rain = 0
KCH1 110424Z 15001KT M00/M01 A304 RMK A01 T10021010  RH  094%=      5-min Rain = 0
KCH1 110425Z 15001KT M00/M01 A304 RMK A01 T10011009  RH  095%=      5-min Rain = 0
KCH1 110426Z 15001KT M00/M01 A304 RMK A01 T10011008  RH  095%=      5-min Rain = 0
KCH1 110427Z 15000KT M00/M01 A304 RMK A01 T10011008  RH  095%=      5-min Rain = 0
KCH1 110428Z 00000KT M00/M01 A304 RMK A01 T10011007  RH  096%=      5-min Rain = 0
KCH1 110429Z 00000KT 00/01 A304 RMK A01 T00-000-6  RH  096%=      5-min Rain = 0
KCH1 110430Z 14000KT 00/01 A304 RMK A01 T000000-5  RH  096%=      5-min Rain = 0
KCH1 110431Z 14001KT 00/M00 A304 RMK A01 T00011004  RH  096%=      5-min Rain = 0
KCH1 110432Z 13001KT 00/M00 A304 RMK A01 T00011004  RH  096%=      5-min Rain = 0
KCH1 110433Z 13001KT 00/M00 A304 RMK A01 T00011004  RH  096%=      5-min Rain = 0
KCH1 110434Z 13001KT 00/M01 A304 RMK A01 T00011006  RH  096%=      5-min Rain = 0
KCH1 110435Z 12001KT M00/M01 A304 RMK A01 T10011009  RH  095%=      5-min Rain = 0
KCH1 110436Z 12001KT M00/M01 A304 RMK A01 T10041012  RH  094%=      5-min Rain = 0
KCH1 110437Z 11001KT M01/M01 A304 RMK A01 T10051013  RH  094%=      5-min Rain = 0
KCH1 110438Z 11001KT M01/M01 A304 RMK A01 T10061014  RH  095%=      5-min Rain = 0
KCH1 110439Z 12001KT M01/M01 A304 RMK A01 T10071014  RH  095%=      5-min Rain = 0
KCH1 110440Z 13001KT M01/M02 A304 RMK A01 T10081015  RH  095%=      5-min Rain = 0
KCH1 110441Z 13001KT M01/M01 A304 RMK A01 T10081014  RH  096%=      5-min Rain = 0
KCH1 110442Z 14001KT M01/M01 A304 RMK A01 T10061012  RH  096%=      5-min Rain = 0
KCH1 110443Z 14001KT M01/M01 A304 RMK A01 T10051010  RH  097%=      5-min Rain = 0
KCH1 110444Z 14001KT M01/M01 A304 RMK A01 T10051009  RH  097%=      5-min Rain = 0
KCH1 110445Z 14002KT M00/M01 A304 RMK A01 T10041008  RH  097%=      5-min Rain = 0
KCH1 110446Z 15002KT M00/M01 A304 RMK A01 T10031007  RH  097%=      5-min Rain = 0
KCH1 110447Z 14002KT M00/M01 A304 RMK A01 T10021005  RH  098%=      5-min Rain = 0
KCH1 110448Z 15002KT M00/M01 A304 RMK A01 T10011005  RH  098%=      5-min Rain = 0
KCH1 110449Z 15001KT M00/M01 A304 RMK A01 T10011005  RH  097%=      5-min Rain = 0
KCH1 110450Z 14001KT M00/M00 A304 RMK A01 T10011004  RH  097%=      5-min Rain = 0
KCH1 110451Z 14001KT 00/00 A304 RMK A01 T00-000-4  RH  097%=      5-min Rain = 0
KCH1 110452Z 13001KT 00/01 A304 RMK A01 T00-000-5  RH  097%=      5-min Rain = 0
KCH1 110453Z 11001KT 00/00 A304 RMK A01 T000000-4  RH  097%=      5-min Rain = 0
KCH1 110454Z 10001KT M00/M01 A304 RMK A01 T10011007  RH  096%=      5-min Rain = 0
KCH1 110455Z 09001KT M01/M01 A304 RMK A01 T10051012  RH  095%=      5-min Rain = 0
KCH1 110456Z 09001KT M01/M02 A304 RMK A01 T10081017  RH  094%=      5-min Rain = 0
KCH1 110457Z 10001KT M01/M02 A304 RMK A01 T10111020  RH  094%=      5-min Rain = 0
KCH1 110458Z 10002KT M01/M02 A304 RMK A01 T10131022  RH  094%=      5-min Rain = 0
KCH1 110459Z 10001KT M01/M02 A304 RMK A01 T10141022  RH  094%=      5-min Rain = 0
KCH1 110500Z 11001KT M01/M02 A304 RMK A01 T10141021  RH  095%=      5-min Rain = 0
KCH1 110501Z 10001KT M01/M02 A304 RMK A01 T10121017  RH  096%=      5-min Rain = 0
KCH1 110502Z 09001KT M01/M02 A304 RMK A01 T10111015  RH  097%=      5-min Rain = 0
KCH1 110503Z 09001KT M01/M01 A304 RMK A01 T10101014  RH  097%=      5-min Rain = 0
KCH1 110504Z 09001KT M01/M01 A304 RMK A01 T10101014  RH  097%=      5-min Rain = 0
KCH1 110505Z 09001KT M01/M01 A304 RMK A01 T10091013  RH  097%=      5-min Rain = 0
KCH1 110506Z 09001KT M01/M01 A3041 RMK A01 T10091012  RH  097%=      5-min Rain = 0
KCH1 110507Z 09001KT M01/M01 A3041 RMK A01 T10081012  RH  098%=      5-min Rain = 0
KCH1 110508Z 10001KT M01/M01 A3041 RMK A01 T10081012  RH  098%=      5-min Rain = 0
KCH1 110509Z 10001KT M01/M01 A3041 RMK A01 T10081012  RH  097%=      5-min Rain = 0
KCH1 110510Z 09001KT M01/M01 A3041 RMK A01 T10081012  RH  097%=      5-min Rain = 0
KCH1 110511Z 09002KT M01/M01 A3041 RMK A01 T10081012  RH  097%=      5-min Rain = 0
KCH1 110512Z 08002KT M01/M01 A3041 RMK A01 T10081012  RH  097%=      5-min Rain = 0
KCH1 110513Z 08002KT M01/M01 A3041 RMK A01 T10091013  RH  097%=      5-min Rain = 0
KCH1 110514Z 08003KT M01/M01 A3041 RMK A01 T10101014  RH  097%=      5-min Rain = 0
KCH1 110515Z 08003KT M01/M02 A3041 RMK A01 T10111015  RH  097%=      5-min Rain = 0
KCH1 110516Z 09002KT M01/M02 A3041 RMK A01 T10111015  RH  097%=      5-min Rain = 0
KCH1 110517Z 08003KT M01/M01 A3041 RMK A01 T10101014  RH  097%=      5-min Rain = 0
KCH1 110518Z 08003KT M01/M01 A3041 RMK A01 T10101013  RH  097%=      5-min Rain = 0
KCH1 110519Z 08003KT M01/M02 A3041 RMK A01 T10111015  RH  097%=      5-min Rain = 0
KCH1 110520Z 07003KT M01/M02 A3041 RMK A01 T10111015  RH  097%=      5-min Rain = 0
KCH1 110521Z 07003KT M01/M02 A3041 RMK A01 T10121016  RH  097%=      5-min Rain = 0
KCH1 110522Z 07003KT M01/M02 A3041 RMK A01 T10121017  RH  097%=      5-min Rain = 0
KCH1 110523Z 08002KT M01/M02 A3041 RMK A01 T10131017  RH  097%=      5-min Rain = 0
KCH1 110524Z 08002KT M01/M02 A3041 RMK A01 T10121016  RH  097%=      5-min Rain = 0
KCH1 110525Z 07002KT M01/M02 A3041 RMK A01 T10111015  RH  098%=      5-min Rain = 0
KCH1 110526Z 08002KT M01/M01 A3041 RMK A01 T10111014  RH  098%=      5-min Rain = 0
KCH1 110527Z 08002KT M01/M01 A3041 RMK A01 T10111014  RH  098%=      5-min Rain = 0
KCH1 110528Z 08003KT M01/M01 A3041 RMK A01 T10101013  RH  098%=      5-min Rain = 0
KCH1 110529Z 08002KT M01/M01 A3041 RMK A01 T10101013  RH  098%=      5-min Rain = 0
KCH1 110530Z 07003KT M01/M01 A3041 RMK A01 T10101013  RH  098%=      5-min Rain = 0
KCH1 110531Z 07002KT M01/M01 A3041 RMK A01 T10101013  RH  098%=      5-min Rain = 0
KCH1 110532Z 08002KT M01/M01 A3041 RMK A01 T10101013  RH  098%=      5-min Rain = 0
KCH1 110533Z 08002KT M01/M01 A3041 RMK A01 T10101013  RH  098%=      5-min Rain = 0
KCH1 110534Z 08002KT M01/M01 A3041 RMK A01 T10101014  RH  098%=      5-min Rain = 0
KCH1 110535Z 08002KT M01/M01 A3041 RMK A01 T10101014  RH  098%=      5-min Rain = 0
KCH1 110536Z 08002KT M01/M01 A3041 RMK A01 T10101014  RH  098%=      5-min Rain = 0
KCH1 110537Z 08002KT M01/M01 A3041 RMK A01 T10101014  RH  098%=      5-min Rain = 0
KCH1 110538Z 08002KT M01/M01 A3041 RMK A01 T10101014  RH  098%=      5-min Rain = 0
KCH1 110539Z 08002KT M01/M01 A3041 RMK A01 T10101014  RH  097%=      5-min Rain = 0
KCH1 110540Z 08002KT M01/M01 A3041 RMK A01 T10101014  RH  097%=      5-min Rain = 0
KCH1 110541Z 07003KT M01/M02 A3041 RMK A01 T10111015  RH  097%=      5-min Rain = 0
KCH1 110542Z 07003KT M01/M02 A3041 RMK A01 T10111015  RH  097%=      5-min Rain = 0
KCH1 110543Z 07003KT M01/M02 A3041 RMK A01 T10111015  RH  097%=      5-min Rain = 0
KCH1 110544Z 07003KT M01/M02 A3041 RMK A01 T10111015  RH  097%=      5-min Rain = 0
KCH1 110545Z 07003KT M01/M02 A3041 RMK A01 T10121016  RH  097%=      5-min Rain = 0
KCH1 110546Z 06003KT M01/M02 A3041 RMK A01 T10121016  RH  097%=      5-min Rain = 0
KCH1 110547Z 06003KT M01/M02 A3041 RMK A01 T10121016  RH  097%=      5-min Rain = 0
KCH1 110548Z 06003KT M01/M02 A3041 RMK A01 T10121015  RH  098%=      5-min Rain = 0
KCH1 110549Z 06003KT M01/M02 A3041 RMK A01 T10121015  RH  098%=      5-min Rain = 0
KCH1 110550Z 06003KT M01/M02 A3041 RMK A01 T10131016  RH  097%=      5-min Rain = 0
KCH1 110551Z 06004KT M01/M02 A3041 RMK A01 T10141018  RH  097%=      5-min Rain = 0
KCH1 110552Z 07004KT M02/M02 A3041 RMK A01 T10151019  RH  097%=      5-min Rain = 0
KCH1 110553Z 06004KT M02/M02 A3041 RMK A01 T10151020  RH  097%=      5-min Rain = 0
KCH1 110554Z 06004KT M02/M02 A3041 RMK A01 T10161021  RH  097%=      5-min Rain = 0
KCH1 110555Z 07004KT M02/M02 A3041 RMK A01 T10161021  RH  097%=      5-min Rain = 0
KCH1 110556Z 07004KT M02/M02 A3041 RMK A01 T10161020  RH  097%=      5-min Rain = 0
KCH1 110557Z 07004KT M02/M02 A3041 RMK A01 T10151018  RH  098%=      5-min Rain = 0
KCH1 110558Z 07004KT M01/M02 A3041 RMK A01 T10141017  RH  098%=      5-min Rain = 0
KCH1 110559Z 07004KT M01/M02 A3041 RMK A01 T10141017  RH  098%=      5-min Rain = 0

Page generated in 0.1421 seconds.